• Join FlightAware (Why Join?)
  • Login
  • US Flag 
06:18AM EDT


 

Airport Tracker/Info


-or-


 

Live Flight TrackerFlight Track Log ✈ SIA21 ✈ 06-Nov-2013 ✈ KEWR - WSSS / SIN

Flight Track Log - Related Links

Times and Time Zones

All times are in EST time to prevent confusion due to time zone crossing. See the SIA21 flight status page for this flight to view local times or setup timezone preferences in your user account.

Time Position Orientation Groundspeed Altitude Reporting Facility
EST Latitude Longitude Course Direction KTS MPH feet Rate Location/Type
11:15PM 40.6756 -74.1794 25° Northeast 182 209 100  Level FlightAware ADS-B
11:15PM 40.6651 -74.1856 204° Southwest 180 207 500 2,340 Climbing FlightAware ADS-B
11:15PM 40.6446 -74.1925 194° South 161 185 1,700 2,220 Climbing FlightAware ADS-B
11:16PM 40.6361 -74.1980 206° Southwest 164 189 2,000 900 Climbing FlightAware ADS-B
11:16PM 40.6226 -74.2075 208° Southwest 173 199 2,200 600 Climbing FlightAware ADS-B
11:16PM 40.6134 -74.2263 237° Southwest 207 238 2,400 840 Climbing FlightAware ADS-B
11:16PM 40.6134 -74.2366 270° West 224 258 2,600 1,500 Climbing FlightAware ADS-B
11:17PM 40.6164 -74.2482 289° West 233 268 2,800 1,380 Climbing FlightAware ADS-B
11:17PM 40.6193 -74.2545 301° West 243 280 2,900 1,560 Climbing FlightAware ADS-B
11:17PM 40.6272 -74.2650 315° West 264 304 3,200 1,800 Climbing FlightAware ADS-B
11:17PM 40.6302 -74.2677 326° Northwest 270 311 3,300 1,740 Climbing FlightAware ADS-B
11:17PM 40.6572 -74.2761 347° North 271 312 3,900 1,800 Climbing FlightAware ADS-B
11:18PM 40.6852 -74.2596 24° Northeast 310 357 4,600 1,500 Climbing FlightAware ADS-B
11:18PM 40.6903 -74.2532 44° Northeast 316 364 4,600 840 Level FlightAware ADS-B
11:18PM 40.7132 -74.2205 47° Northeast 316 364 5,000 1,680 Climbing FlightAware ADS-B
11:18PM 40.7307 -74.1975 45° Northeast 338 389 5,700 2,460 Climbing FlightAware ADS-B
11:19PM 40.7484 -74.1758 43° Northeast 341 392 6,300 1,800 Climbing FlightAware ADS-B
11:19PM 40.7694 -74.1507 42° Northeast 350 403 6,700 1,440 Climbing FlightAware ADS-B
11:19PM 40.7885 -74.1288 41° Northeast 362 417 7,100 1,500 Climbing FlightAware ADS-B
11:19PM 40.8162 -74.0977 40° Northeast 377 434 7,600 1,380 Climbing FlightAware ADS-B
11:20PM 40.8452 -74.0642 41° Northeast 388 447 8,100 1,260 Climbing FlightAware ADS-B
11:20PM 40.8665 -74.0394 41° Northeast 404 465 8,400 1,500 Climbing FlightAware ADS-B
11:20PM 40.8882 -74.0137 42° Northeast 410 472 8,900 1,920 Climbing FlightAware ADS-B
11:21PM 40.9097 -73.9882 42° Northeast 411 473 9,400 1,920 Climbing FlightAware ADS-B
11:21PM 40.9324 -73.9617 41° Northeast 419 482 9,900 2,040 Climbing FlightAware ADS-B
11:21PM 40.9772 -73.9099 41° Northeast 421 484 11,000 2,040 Climbing FlightAware ADS-B
11:22PM 41.0221 -73.8576 41° Northeast 429 494 12,000 1,860 Climbing FlightAware ADS-B
11:22PM 41.0682 -73.8035 41° Northeast 436 502 12,900 1,620 Climbing FlightAware ADS-B
11:23PM 41.1147 -73.7487 42° Northeast 443 510 13,700 1,560 Climbing FlightAware ADS-B
11:24PM 41.1951 -73.6535 42° Northeast 445 512 15,100 1,500 Climbing FlightAware ADS-B (KSNC)
11:24PM 41.2524 -73.5855 42° Northeast 450 518 16,100 1,320 Climbing FlightAware ADS-B (KSNC)
11:25PM 41.3052 -73.5231 42° Northeast 455 524 16,700 1,200 Climbing FlightAware ADS-B (KSNC)
11:25PM 41.3286 -73.5023 34° Northeast 454 522 17,100 1,260 Climbing FlightAware ADS-B (KSNC)
11:26PM 41.3836 -73.4812 16° North 448 516 17,600 1,320 Climbing FlightAware ADS-B (KSNC)
11:26PM 41.4648 -73.4683 North 450 518 18,500 1,440 Climbing FlightAware ADS-B (KSNC)
11:27PM 41.5253 -73.4581 North 449 517 19,300 1,320 Climbing FlightAware ADS-B (KSNC)
11:27PM 41.6090 -73.4432 North 454 522 20,100 1,620 Climbing FlightAware ADS-B (KSNC)
11:28PM 41.6703 -73.4322 North 440 506 21,200 1,980 Climbing FlightAware ADS-B (KSNC)
11:28PM 41.7155 -73.4243 North 439 505 22,100 1,680 Climbing FlightAware ADS-B (KSNC)
11:29PM 41.7935 -73.4106 North 438 504 23,200 1,200 Climbing FlightAware ADS-B (KSNC)
11:31PM 41.9736 -73.3790 North 448 516 24,700 840 Climbing FlightAware ADS-B (KSNC)
11:31PM 42.0940 -73.3580 North 459 528 25,200 660 Climbing FlightAware
11:32PM 42.1418 -73.3491 North 461 531 25,600 540 Climbing FlightAware ADS-B (KSNC)
11:32PM 42.2264 -73.3340 North 467 537 25,800 420 Climbing FlightAware ADS-B (KSNC)
11:33PM 42.3070 -73.3164 North 481 554 26,100 360 Climbing FlightAware ADS-B (KSNC)
11:34PM 42.3970 -73.2800 17° North 500 575 26,300 420 Climbing FlightAware
11:34PM 42.4718 -73.2349 24° Northeast 514 592 26,700 660 Climbing FlightAware ADS-B (KOWD)
11:35PM 42.4857 -73.2248 28° Northeast 515 593 27,200 780 Climbing FlightAware ADS-B (KSNC)
11:35PM 42.4718 -73.2349 208° Southwest 528 608 27,500 900 Climbing FlightAware ADS-B (KOWD)
11:36PM 42.6573 -73.0432 37° Northeast 543 625 28,300 840 Climbing FlightAware ADS-B (KOWD)
11:37PM 42.7404 -72.8917 53° Northeast 549 632 28,900 840 Climbing FlightAware ADS-B (KSNC)
11:38PM 42.7933 -72.7634 61° Northeast 554 638 29,400 780 Climbing FlightAware ADS-B (KOWD)
11:38PM 42.8298 -72.6747 61° Northeast 555 639 29,900 660 Climbing FlightAware ADS-B (KSNC)
11:39PM 42.9229 -72.4484 61° Northeast 565 650 30,600 480 Climbing FlightAware ADS-B (KSNC)
11:40PM 42.9646 -72.3466 61° Northeast 570 656 30,800 600 Climbing FlightAware ADS-B
11:40PM 43.0095 -72.2367 61° Northeast 571 657 31,300 780 Climbing FlightAware ADS-B
11:41PM 43.0486 -72.1404 61° Northeast 571 657 31,700 840 Climbing FlightAware ADS-B
11:42PM 43.0979 -72.0188 61° Northeast 570 656 32,300 840 Climbing FlightAware ADS-B (KBOS)
11:42PM 43.1347 -71.9276 61° Northeast 570 656 32,700 540 Climbing FlightAware ADS-B (KOWD)
11:43PM 43.1877 -71.7957 61° Northeast 573 659 33,000 240 Climbing FlightAware ADS-B (KBOS)
11:43PM 43.2257 -71.7011 61° Northeast 579 666 33,000  Level FlightAware ADS-B
11:44PM 43.2657 -71.6008 61° Northeast 578 665 33,000  Level FlightAware ADS-B (KBOS)
11:44PM 43.3070 -71.4967 61° Northeast 580 667 33,000  Level FlightAware ADS-B (KOWD)
11:45PM 43.3481 -71.3930 61° Northeast 578 665 33,000  Level FlightAware ADS-B (KBOS)
11:45PM 43.3868 -71.2950 61° Northeast 579 666 33,000  Level FlightAware ADS-B (KOWD)
11:46PM 43.4214 -71.2072 62° Northeast 579 666 33,000  Level FlightAware ADS-B (KOWD)
11:46PM 43.4669 -71.0911 62° Northeast 575 662 33,000  Level FlightAware ADS-B
11:47PM 43.5058 -70.9915 62° Northeast 574 661 33,000  Level FlightAware ADS-B
11:47PM 43.5320 -70.9240 62° Northeast 574 661 33,000  Level FlightAware ADS-B (KBOS)
11:48PM 43.5703 -70.8255 62° Northeast 574 661 33,000  Level FlightAware ADS-B (KBOS)
11:48PM 43.5826 -70.7939 62° Northeast 571 657 33,000  Level FlightAware ADS-B
11:48PM 43.5938 -70.7649 62° Northeast 570 656 33,000  Level FlightAware ADS-B
11:48PM 43.6075 -70.7295 62° Northeast 570 656 33,000  Level FlightAware ADS-B
11:49PM 43.6549 -70.6063 62° Northeast 569 655 33,000  Level FlightAware ADS-B
11:49PM 43.6599 -70.5934 62° Northeast 573 659 33,000  Level FlightAware ADS-B (KBOS)
11:50PM 43.7118 -70.4579 62° Northeast 573 659 33,000  Level FlightAware ADS-B (CYQI)
11:50PM 43.7648 -70.3192 62° Northeast 572 658 33,000  Level FlightAware ADS-B
11:51PM 43.7873 -70.2601 62° Northeast 575 662 33,000  Level FlightAware ADS-B (CYQI)
11:51PM 43.8234 -70.1646 62° Northeast 569 655 33,000  Level FlightAware ADS-B
11:52PM 43.8614 -70.0642 62° Northeast 569 655 33,000  Level FlightAware ADS-B
11:52PM 43.9147 -69.9224 62° Northeast 570 656 33,000  Level FlightAware ADS-B
11:53PM 43.9521 -69.8228 62° Northeast 570 656 33,000  Level FlightAware ADS-B
11:53PM 43.9894 -69.7228 63° Northeast 572 658 33,000  Level FlightAware ADS-B
11:54PM 44.0379 -69.5921 63° Northeast 573 659 33,000  Level FlightAware ADS-B
11:55PM 44.0831 -69.4700 63° Northeast 572 658 33,000  Level FlightAware ADS-B
11:55PM 44.1220 -69.3644 63° Northeast 570 656 33,000  Level FlightAware ADS-B
11:56PM 44.1581 -69.2661 63° Northeast 569 655 33,000  Level FlightAware ADS-B
11:56PM 44.1981 -69.1566 63° Northeast 569 655 33,000  Level FlightAware ADS-B (KBGR)
11:57PM 44.2341 -69.0578 63° Northeast 571 657 33,000  Level FlightAware ADS-B (KBGR)
11:57PM 44.2738 -68.9485 63° Northeast 570 656 33,000  Level FlightAware ADS-B
11:58PM 44.3111 -68.8454 63° Northeast 572 658 33,000  Level FlightAware ADS-B (CYQI)
11:58PM 44.3483 -68.7422 63° Northeast 570 656 33,000  Level FlightAware ADS-B
11:59PM 44.3643 -68.6975 63° Northeast 570 656 33,000  Level FlightAware ADS-B
11:59PM 44.3989 -68.6011 63° Northeast 568 654 33,000  Level FlightAware ADS-B (KBGR)
12:00AM 44.4494 -68.4596 63° Northeast 568 654 33,000  Level FlightAware ADS-B (KBGR)
12:00AM 44.4838 -68.3628 63° Northeast 570 656 33,000  Level FlightAware ADS-B (KBGR)
12:01AM 44.5348 -68.2188 64° Northeast 572 658 33,000  Level FlightAware ADS-B (CYQI)
12:02AM 44.5745 -68.1060 64° Northeast 572 658 33,000  Level FlightAware ADS-B (CYQI)
12:02AM 44.6193 -67.9780 64° Northeast 571 657 33,000  Level FlightAware ADS-B (CYQI)
12:03AM 44.6574 -67.8686 64° Northeast 569 655 33,000  Level FlightAware ADS-B (CYQI)
12:03AM 44.6917 -67.7700 64° Northeast 568 654 33,000  Level FlightAware ADS-B (KBGR)
12:04AM 44.7343 -67.6470 64° Northeast 568 654 33,000  Level FlightAware ADS-B (KBGR)
12:05AM 44.7861 -67.4967 64° Northeast 567 652 33,000  Level FlightAware ADS-B (CYQI)
12:05AM 44.8109 -67.4244 64° Northeast 567 652 33,000  Level FlightAware ADS-B (CYSG)
12:06AM 44.8650 -67.2659 64° Northeast 565 650 33,000  Level FlightAware ADS-B (CYQI)
12:06AM 44.8892 -67.1963 64° Northeast 559 643 33,000  Level FlightAware ADS-B (CYQI)
12:06AM 44.9021 -67.1616 62° Northeast 555 639 33,000  Level FlightAware ADS-B (CYSG)
12:07AM 44.9174 -67.1233 61° Northeast 546 628 33,000  Level FlightAware ADS-B (CYQI)
12:08AM 45.0190 -66.9150 55° Northeast 532 612 33,000  Level FlightAware
12:08AM 45.0474 -66.8578 55° Northeast 537 618 33,000  Level FlightAware ADS-B (CYQI)
12:09AM 45.1235 -66.7011 55° Northeast 537 618 33,000  Level FlightAware ADS-B (CYQI)
12:10AM 45.1970 -66.5484 56° Northeast 537 618 33,000  Level FlightAware ADS-B (CYQI)
12:11AM 45.2509 -66.4359 56° Northeast 536 617 33,000  Level FlightAware ADS-B (CYQI)
12:11AM 45.2944 -66.3447 56° Northeast 536 617 33,000  Level FlightAware ADS-B (CYQI)
12:12AM 45.3616 -66.2032 56° Northeast 536 617 33,000  Level FlightAware ADS-B (CYQI)
12:12AM 45.4064 -66.1086 56° Northeast 538 619 33,000  Level FlightAware ADS-B (CYQI)
12:13AM 45.4459 -66.0249 56° Northeast 533 613 33,000  Level FlightAware ADS-B (CYQI)
12:13AM 45.4907 -65.9295 56° Northeast 532 612 33,000  Level FlightAware ADS-B (CYQI)
12:14AM 45.5400 -65.8240 56° Northeast 527 606 33,000  Level FlightAware
12:15AM 45.6121 -65.6698 56° Northeast 531 611 33,000  Level FlightAware ADS-B (CYQI)
12:16AM 45.6759 -65.5327 56° Northeast 531 611 33,000  Level FlightAware ADS-B (CYQI)
12:16AM 45.7177 -65.4419 57° Northeast 531 611 33,000  Level FlightAware ADS-B (CYQI)
12:17AM 45.7769 -65.3134 57° Northeast 528 608 33,000  Level FlightAware ADS-B (CYQI)
12:18AM 45.8539 -65.1453 57° Northeast 533 613 33,000  Level FlightAware ADS-B (CYQI)
12:19AM 45.9187 -65.0030 57° Northeast 532 612 33,000  Level FlightAware ADS-B (CYQI)
12:20AM 45.9995 -64.8246 57° Northeast 532 612 33,000  Level FlightAware ADS-B (CYQI)
12:21AM 46.0590 -64.6930 57° Northeast 531 611 33,000  Level FlightAware
12:21AM 46.1020 -64.5970 57° Northeast 531 611 33,000  Level FlightAware
12:21AM 46.1120 -64.5742 58° Northeast 533 613 33,000  Level FlightAware ADS-B (CYQI)
12:22AM 46.1681 -64.4485 57° Northeast 532 612 33,000  Level FlightAware ADS-B (CYQI)
12:23AM 46.2420 -64.2810 57° Northeast 530 610 33,000  Level FlightAware
12:23AM 46.2820 -64.1920 57° Northeast 525 604 33,000  Level FlightAware
12:24AM 46.3150 -64.1170 57° Northeast 524 603 33,000  Level FlightAware
12:24AM 46.3670 -63.9990 57° Northeast 529 609 33,000 660 Level FlightAware
12:25AM 46.4170 -63.8830 58° Northeast 523 602 33,900 660 Climbing FlightAware
12:26AM 46.4820 -63.7350 57° Northeast 522 601 34,000 60 Climbing FlightAware
12:27AM 46.5420 -63.5960 58° Northeast 521 600 34,000  Level FlightAware
12:27AM 46.5980 -63.4660 58° Northeast 521 600 34,000  Level FlightAware
12:28AM 46.6670 -63.3040 58° Northeast 529 609 34,000  Level FlightAware
12:29AM 46.6950 -63.2390 58° Northeast 534 615 34,000  Level FlightAware
12:30AM 46.7720 -63.0580 58° Northeast 540 621 34,000  Level FlightAware
12:30AM 46.7970 -63.0000 58° Northeast 542 624 34,000  Level FlightAware
12:31AM 46.8770 -62.8090 58° Northeast 543 625 34,000  Level FlightAware
12:31AM 46.9150 -62.7190 58° Northeast 538 619 34,000  Level FlightAware
12:32AM 46.9710 -62.5850 58° Northeast 538 619 34,000  Level FlightAware
12:33AM 47.0320 -62.4370 59° Northeast 534 615 34,000  Level FlightAware
12:34AM 47.1070 -62.2560 59° Northeast 534 615 34,000  Level FlightAware
12:35AM 47.1740 -62.0930 59° Northeast 535 616 34,000  Level FlightAware
12:36AM 47.2400 -61.9310 59° Northeast 536 617 34,000  Level FlightAware
12:36AM 47.2860 -61.8170 59° Northeast 536 617 34,000  Level FlightAware
12:37AM 47.3510 -61.6560 59° Northeast 532 612 34,000  Level FlightAware
12:38AM 47.4280 -61.4620 60° Northeast 526 605 34,000  Level FlightAware
12:39AM 47.4770 -61.3400 59° Northeast 525 604 34,000  Level FlightAware
12:39AM 47.5140 -61.2470 59° Northeast 527 606 34,000  Level FlightAware
12:40AM 47.5760 -61.0890 60° Northeast 532 612 34,000  Level FlightAware
12:41AM 47.6140 -60.9940 59° Northeast 530 610 34,000  Level FlightAware
12:42AM 47.6850 -60.8110 60° Northeast 529 609 34,000  Level FlightAware
12:42AM 47.7310 -60.6940 60° Northeast 529 609 34,000  Level FlightAware
12:43AM 47.7930 -60.5320 60° Northeast 532 612 34,000  Level FlightAware
12:44AM 47.8280 -60.4410 60° Northeast 530 610 34,000  Level FlightAware
12:44AM 47.8870 -60.2880 60° Northeast 529 609 34,000  Level FlightAware
12:45AM 47.9400 -60.1500 60° Northeast 526 605 34,000  Level FlightAware
12:46AM 48.0240 -59.9280 60° Northeast 530 610 34,000  Level FlightAware
12:47AM 48.0460 -59.8690 61° Northeast 531 611 34,000  Level FlightAware
12:48AM 48.1240 -59.6600 61° Northeast 533 613 34,000  Level FlightAware
12:49AM 48.1840 -59.5000 61° Northeast 534 615 34,000  Level FlightAware
12:49AM 48.2110 -59.4270 61° Northeast 534 615 34,000  Level FlightAware
12:50AM 48.2540 -59.3100 61° Northeast 533 613 34,000  Level FlightAware
12:50AM 48.2900 -59.2130 61° Northeast 528 608 34,000  Level FlightAware
12:51AM 48.3260 -59.1150 61° Northeast 525 604 34,000  Level FlightAware
12:52AM 48.3950 -58.9250 61° Northeast 529 609 34,000  Level FlightAware
12:52AM 48.4550 -58.7590 61° Northeast 532 612 34,000  Level FlightAware
12:53AM 48.4900 -58.6610 62° Northeast 532 612 34,000  Level FlightAware
12:54AM 48.5320 -58.5460 61° Northeast 530 610 34,000  Level FlightAware
12:54AM 48.5640 -58.4550 62° Northeast 527 606 34,000  Level FlightAware
12:55AM 48.6290 -58.2730 62° Northeast 526 605 34,000  Level FlightAware
12:56AM 48.6800 -58.1270 62° Northeast 527 606 34,000  Level FlightAware
12:56AM 48.7080 -58.0480 62° Northeast 528 608 34,000  Level FlightAware
12:57AM 48.7720 -57.8650 62° Northeast 529 609 34,000  Level FlightAware
12:58AM 48.8290 -57.7000 62° Northeast 532 612 34,000  Level FlightAware
12:58AM 48.8660 -57.5860 64° Northeast 530 610 34,000  Level FlightAware
12:59AM 48.9180 -57.4240 64° Northeast 528 608 34,000  Level FlightAware
01:00AM 48.9580 -57.3030 63° Northeast 529 609 34,000  Level FlightAware
01:01AM 49.0100 -57.1410 64° Northeast 528 608 34,000  Level FlightAware
01:02AM 49.0700 -56.9530 64° Northeast 526 605 34,000  Level FlightAware
01:02AM 49.1020 -56.8530 64° Northeast 524 603 34,000  Level FlightAware
01:03AM 49.1400 -56.7340 64° Northeast 524 603 34,000  Level FlightAware
01:04AM 49.2080 -56.5180 64° Northeast 526 605 34,000  Level FlightAware
01:05AM 49.2760 -56.3020 64° Northeast 527 606 34,000  Level FlightAware
01:05AM 49.3130 -56.1830 64° Northeast 528 608 34,000  Level FlightAware
01:06AM 49.3690 -56.0000 65° Northeast 526 605 34,000  Level FlightAware
01:07AM 49.4060 -55.8800 65° Northeast 525 604 34,000  Level FlightAware
01:07AM 49.4370 -55.7790 65° Northeast 525 604 34,000  Level FlightAware
01:08AM 49.4730 -55.6610 65° Northeast 526 605 34,000  Level FlightAware
01:09AM 49.5140 -55.5260 65° Northeast 527 606 34,000  Level FlightAware
01:09AM 49.5390 -55.4430 65° Northeast 527 606 34,000  Level FlightAware
01:10AM 49.5690 -55.3410 66° East 527 606 34,000  Level FlightAware
01:11AM 49.6360 -55.1170 65° Northeast 528 608 34,000  Level FlightAware
01:11AM 49.6830 -54.9600 65° Northeast 530 610 34,000  Level FlightAware
01:13AM 49.7490 -54.7320 66° East 533 613 34,000  Level FlightAware
01:14AM 49.8120 -54.5170 66° East 535 616 34,000  Level FlightAware
01:15AM 49.8690 -54.3200 66° East 538 619 34,000  Level FlightAware
01:15AM 49.8970 -54.2200 66° East 537 618 34,000  Level FlightAware
01:16AM 49.9320 -54.0980 66° East 537 618 34,000  Level FlightAware
01:16AM 49.9620 -53.9930 66° East 537 618 34,000  Level FlightAware
01:17AM 49.9950 -53.8760 66° East 536 617 34,000  Level FlightAware
01:17AM 50.0430 -53.7070 66° East 532 612 34,000  Level FlightAware
01:18AM 50.0990 -53.5020 67° East 529 609 34,000  Level FlightAware
01:19AM 50.1350 -53.3750 66° East 530 610 34,000  Level FlightAware
01:20AM 50.1840 -53.1970 67° East 532 612 34,000  Level FlightAware
01:21AM 50.2420 -52.9840 67° East 534 615 34,000  Level FlightAware
01:21AM 50.2700 -52.8780 68° East 535 616 34,000  Level FlightAware
01:22AM 50.3080 -52.7370 67° East 535 616 34,000  Level FlightAware
01:23AM 50.3410 -52.6130 67° East 535 616 34,000  Level FlightAware
01:23AM 50.3750 -52.4870 67° East 535 616 34,000  Level FlightAware
01:24AM 50.4270 -52.2910 67° East 533 613 34,000  Level FlightAware
01:25AM 50.4480 -52.2100 68° East 534 615 34,000  Level FlightAware
01:25AM 50.4970 -52.0220 68° East 537 618 34,000  Level FlightAware
01:26AM 50.5260 -51.9120 67° East 538 619 34,000  Level FlightAware
01:26AM 50.5450 -51.8390 68° East 538 619 34,000  Level FlightAware
01:27AM 50.5850 -51.6810 68° East 538 619 34,000  Level FlightAware
01:27AM 50.6110 -51.5780 68° East 536 617 34,000  Level FlightAware
01:29AM 50.6780 -51.3160 68° East 536 617 34,000  Level FlightAware
01:29AM 50.7070 -51.2050 68° East 536 617 34,000  Level FlightAware
01:30AM 50.7350 -51.0940 68° East 536 617 34,000  Level FlightAware
01:31AM 50.7640 -50.9790 68° East 536 617 34,000  Level FlightAware
01:31AM 50.8020 -50.8310 68° East 536 617 34,000  Level FlightAware
01:32AM 50.8400 -50.6820 68° East 536 617 34,000  Level FlightAware
01:33AM 50.8870 -50.4970 68° East 536 617 34,000  Level FlightAware
01:34AM 50.9060 -50.4220 68° East 536 617 34,000  Level FlightAware
01:34AM 50.9360 -50.3080 67° East 536 617 34,000  Level FlightAware
01:35AM 50.9550 -50.2330 68° East 536 617 34,000  Level FlightAware
01:35AM 50.9840 -50.1180 68° East 536 617 34,000  Level FlightAware
01:36AM 51.0200 -49.9750 68° East 536 617 34,000  Level FlightAware
01:37AM 51.0680 -49.7860 68° East 536 617 34,000  Level FlightAware
01:37AM 51.0780 -49.7480 67° East 536 617 34,000  Level FlightAware
01:38AM 51.0833 -49.1667 67° East 560 644 34,000  Level Gander Center
01:40AM 51.1952 -49.0530 32° Northeast  Level Estimated
01:47AM 51.9621 -48.2548 33° Northeast  Level Estimated
01:48AM 52.0712 -48.1386 33° Northeast  Level Estimated
01:49AM 52.1802 -48.0217 33° Northeast  Level Estimated
01:52AM 52.5065 -47.6678 33° Northeast  Level Estimated
01:53AM 52.6150 -47.5487 34° Northeast  Level Estimated
01:54AM 52.7234 -47.4290 34° Northeast  Level Estimated
01:55AM 52.8317 -47.3086 34° Northeast  Level Estimated
01:56AM 52.9399 -47.1877 34° Northeast  Level Estimated
01:57AM 53.0479 -47.0662 34° Northeast  Level Estimated
01:58AM 53.1558 -46.9440 34° Northeast  Level Estimated
01:59AM 53.2636 -46.8213 34° Northeast  Level Estimated
02:00AM 53.3713 -46.6979 34° Northeast  Level Estimated
02:01AM 53.4788 -46.5739 34° Northeast  Level Estimated
02:02AM 53.5862 -46.4493 35° Northeast  Level Estimated
02:03AM 53.6935 -46.3240 35° Northeast  Level Estimated
02:04AM 53.8007 -46.1981 35° Northeast  Level Estimated
02:05AM 53.9077 -46.0715 35° Northeast  Level Estimated
02:06AM 54.0145 -45.9443 35° Northeast  Level Estimated
02:07AM 54.1213 -45.8165 35° Northeast  Level Estimated
02:08AM 54.2279 -45.6880 35° Northeast  Level Estimated
02:09AM 54.3344 -45.5588 35° Northeast  Level Estimated
02:10AM 54.4407 -45.4289 35° Northeast  Level Estimated
02:11AM 54.5469 -45.2984 35° Northeast  Level Estimated
02:12AM 54.6529 -45.1672 36° Northeast  Level Estimated
02:13AM 54.7589 -45.0353 36° Northeast  Level Estimated
02:14AM 54.8646 -44.9027 36° Northeast  Level Estimated
02:15AM 54.9702 -44.7694 36° Northeast  Level Estimated
02:16AM 55.0757 -44.6354 36° Northeast  Level Estimated
02:17AM 55.1810 -44.5007 36° Northeast  Level Estimated
02:18AM 55.2862 -44.3653 36° Northeast  Level Estimated
02:19AM 55.3912 -44.2292 36° Northeast  Level Estimated
02:20AM 55.4961 -44.0924 36° Northeast  Level Estimated
02:21AM 55.6008 -43.9548 37° Northeast  Level Estimated
02:22AM 55.7054 -43.8164 37° Northeast  Level Estimated
02:23AM 55.8098 -43.6774 37° Northeast  Level Estimated
02:24AM 55.9140 -43.5376 37° Northeast  Level Estimated
02:25AM 56.0181 -43.3970 37° Northeast  Level Estimated
02:26AM 56.1221 -43.2557 37° Northeast  Level Estimated
02:27AM 56.2258 -43.1136 37° Northeast  Level Estimated
02:28AM 56.3294 -42.9708 37° Northeast  Level Estimated
02:29AM 56.4329 -42.8271 37° Northeast  Level Estimated
02:30AM 56.5361 -42.6827 38° Northeast  Level Estimated
02:31AM 56.6392 -42.5375 38° Northeast  Level Estimated
02:32AM 56.7422 -42.3915 38° Northeast  Level Estimated
02:33AM 56.8449 -42.2447 38° Northeast  Level Estimated
02:34AM 56.9475 -42.0971 38° Northeast  Level Estimated
02:35AM 57.0499 -41.9487 38° Northeast  Level Estimated
02:36AM 57.1522 -41.7995 38° Northeast  Level Estimated
02:37AM 57.2542 -41.6494 38° Northeast  Level Estimated
02:38AM 57.3561 -41.4985 39° Northeast  Level Estimated
02:39AM 57.4578 -41.3467 39° Northeast  Level Estimated
02:40AM 57.5593 -41.1942 39° Northeast  Level Estimated
02:41AM 57.6606 -41.0407 39° Northeast  Level Estimated
02:42AM 57.7618 -40.8864 39° Northeast  Level Estimated
02:43AM 57.8628 -40.7313 39° Northeast  Level Estimated
02:44AM 57.9635 -40.5752 39° Northeast  Level Estimated
02:45AM 58.0641 -40.4183 40° Northeast  Level Estimated
02:46AM 58.1645 -40.2605 40° Northeast  Level Estimated
02:47AM 58.2646 -40.1018 40° Northeast  Level Estimated
02:48AM 58.3646 -39.9422 40° Northeast  Level Estimated
02:49AM 58.4644 -39.7817 40° Northeast  Level Estimated
02:50AM 58.5640 -39.6203 40° Northeast  Level Estimated
02:51AM 58.6634 -39.4580 40° Northeast  Level Estimated
02:52AM 58.7626 -39.2948 40° Northeast  Level Estimated
02:53AM 58.8615 -39.1306 41° Northeast  Level Estimated
02:54AM 58.9603 -38.9654 41° Northeast  Level Estimated
02:55AM 59.0588 -38.7994 41° Northeast  Level Estimated
02:56AM 59.1572 -38.6323 41° Northeast  Level Estimated
02:57AM 59.2553 -38.4643 41° Northeast  Level Estimated
02:58AM 59.3532 -38.2954 41° Northeast  Level Estimated
02:59AM 59.4509 -38.1254 41° Northeast  Level Estimated
03:00AM 59.5483 -37.9545 42° Northeast  Level Estimated
03:01AM 59.6456 -37.7826 42° Northeast  Level Estimated
03:02AM 59.7426 -37.6097 42° Northeast  Level Estimated
03:03AM 59.8394 -37.4358 42° Northeast  Level Estimated
03:04AM 59.9359 -37.2609 42° Northeast  Level Estimated
03:05AM 60.0322 -37.0849 42° Northeast  Level Estimated
03:06AM 60.1283 -36.9079 42° Northeast  Level Estimated
03:07AM 60.2242 -36.7299 43° Northeast  Level Estimated
03:08AM 60.3198 -36.5509 43° Northeast  Level Estimated
03:09AM 60.4151 -36.3708 43° Northeast  Level Estimated
03:10AM 60.5102 -36.1896 43° Northeast  Level Estimated
03:11AM 60.6051 -36.0074 43° Northeast  Level Estimated
03:12AM 60.6997 -35.8241 43° Northeast  Level Estimated
03:13AM 60.7941 -35.6397 44° Northeast  Level Estimated
03:14AM 60.8882 -35.4542 44° Northeast  Level Estimated
03:15AM 60.9821 -35.2677 44° Northeast  Level Estimated
03:16AM 61.0757 -35.0800 44° Northeast  Level Estimated
03:17AM 61.1690 -34.8912 44° Northeast  Level Estimated
03:18AM 61.2621 -34.7013 44° Northeast  Level Estimated
03:19AM 61.3549 -34.5103 45° Northeast  Level Estimated
03:20AM 61.4474 -34.3181 45° Northeast  Level Estimated
03:21AM 61.5397 -34.1248 45° Northeast  Level Estimated
03:22AM 61.6317 -33.9304 45° Northeast  Level Estimated
03:23AM 61.7234 -33.7348 45° Northeast  Level Estimated
03:24AM 61.8148 -33.5380 45° Northeast  Level Estimated
03:25AM 61.9060 -33.3400 46° Northeast  Level Estimated
03:26AM 61.9968 -33.1409 46° Northeast  Level Estimated
03:27AM 62.0874 -32.9406 46° Northeast  Level Estimated
03:28AM 62.1777 -32.7391 46° Northeast  Level Estimated
03:29AM 62.2677 -32.5364 46° Northeast  Level Estimated
03:30AM 62.3573 -32.3324 46° Northeast  Level Estimated
03:31AM 62.4467 -32.1273 47° Northeast  Level Estimated
03:32AM 62.5358 -31.9209 47° Northeast  Level Estimated
03:33AM 62.6246 -31.7132 47° Northeast  Level Estimated
03:34AM 62.7131 -31.5044 47° Northeast  Level Estimated
03:35AM 62.8012 -31.2943 47° Northeast  Level Estimated
03:36AM 62.8891 -31.0829 48° Northeast  Level Estimated
03:37AM 62.9766 -30.8702 48° Northeast  Level Estimated
03:38AM 63.0638 -30.6563 48° Northeast  Level Estimated
03:39AM 63.1507 -30.4411 48° Northeast  Level Estimated
03:40AM 63.2373 -30.2246 48° Northeast  Level Estimated
03:41AM 63.3235 -30.0068 49° Northeast  Level Estimated
03:42AM 63.4094 -29.7877 49° Northeast  Level Estimated
03:43AM 63.4949 -29.5673 49° Northeast  Level Estimated
03:44AM 63.5801 -29.3456 49° Northeast  Level Estimated
03:45AM 63.6650 -29.1225 49° Northeast  Level Estimated
03:46AM 63.7495 -28.8981 50° Northeast  Level Estimated
03:47AM 63.8337 -28.6724 50° Northeast  Level Estimated
03:48AM 63.9175 -28.4453 50° Northeast  Level Estimated
03:49AM 64.0010 -28.2169 50° Northeast  Level Estimated
03:50AM 64.0841 -27.9870 50° Northeast  Level Estimated
03:51AM 64.1668 -27.7558 51° Northeast  Level Estimated
03:52AM 64.2492 -27.5233 51° Northeast  Level Estimated
03:53AM 64.3311 -27.2893 51° Northeast  Level Estimated
03:54AM 64.4128 -27.0540 51° Northeast  Level Estimated
03:55AM 64.4940 -26.8172 51° Northeast  Level Estimated
03:56AM 64.5749 -26.5791 52° Northeast  Level Estimated
03:57AM 64.6553 -26.3395 52° Northeast  Level Estimated
03:58AM 64.7354 -26.0985 52° Northeast  Level Estimated
03:59AM 64.8151 -25.8561 52° Northeast  Level Estimated
04:00AM 64.8944 -25.6122 52° Northeast  Level Estimated
04:01AM 64.9733 -25.3669 53° Northeast  Level Estimated
04:02AM 65.0518 -25.1201 53° Northeast  Level Estimated
04:03AM 65.1298 -24.8720 53° Northeast  Level Estimated
04:04AM 65.2075 -24.6223 53° Northeast  Level Estimated
04:05AM 65.2847 -24.3712 54° Northeast  Level Estimated
04:05AM 53.9630 -13.9440 54° Northeast 548 631 34,000  Level FlightAware
04:06AM 65.3615 -24.1186 54° Northeast  Level Estimated
04:06AM 53.9600 -13.8100 92° East 546 628 34,400  Level FlightAware
04:06AM 53.9550 -13.6330 93° East 541 623 34,900 360 Climbing FlightAware
04:07AM 53.9490 -13.4030 92° East 542 624 35,000 60 Climbing FlightAware
04:08AM 53.9440 -13.2300 93° East 547 629 35,000  Level FlightAware
04:08AM 53.9400 -13.1020 93° East 551 634 35,000  Level FlightAware
04:09AM 53.9350 -12.9520 93° East 551 634 35,000  Level FlightAware
04:09AM 53.9300 -12.7990 93° East 552 635 35,000  Level FlightAware
04:10AM 53.9250 -12.6320 93° East 549 632 35,000  Level FlightAware
04:10AM 53.9230 -12.5670 93° East 550 633 35,000  Level FlightAware
04:11AM 53.9130 -12.3070 94° East 552 635 35,000  Level FlightAware
04:12AM 53.9070 -12.1500 94° East 556 640 35,000  Level FlightAware
04:13AM 53.9000 -11.9580 93° East 555 639 35,000  Level FlightAware
04:13AM 53.8940 -11.8300 94° East 557 641 35,000  Level FlightAware
04:14AM 53.8940 -11.6570 90° East 561 646 35,000  Level FlightAware
04:15AM 53.8950 -11.4790 89° East 555 639 35,000  Level FlightAware
04:15AM 53.8890 -11.3110 93° East 550 633 35,000  Level FlightAware
04:16AM 53.8790 -11.0900 94° East 552 635 35,000  Level FlightAware
04:17AM 53.8660 -10.8310 95° East 555 639 35,000  Level FlightAware
04:18AM 53.8580 -10.6800 95° East 554 638 35,000  Level FlightAware
04:19AM 53.8430 -10.3830 95° East 551 634 35,000  Level FlightAware
04:19AM 53.8360 -10.2570 95° East 552 635 35,000  Level FlightAware
04:20AM 53.8280 -10.1120 95° East 554 638 35,000  Level FlightAware
04:20AM 53.8190 -9.9510 95° East 553 636 35,000  Level FlightAware
04:21AM 53.8090 -9.7840 96° East 556 640 35,000  Level FlightAware
04:22AM 53.8151 -9.8814 276° West 555 639 35,000  Level FlightAware ADS-B (EGAA / BFS)
04:23AM 53.7820 -9.3190 95° East 553 636 35,000  Level FlightAware
04:24AM 53.7710 -9.1530 96° East 554 638 35,000  Level FlightAware
04:24AM 53.8009 -9.6374 276° West 553 636 35,000  Level FlightAware ADS-B (EGAA / BFS)
04:25AM 53.7520 -8.8670 276° West 559 643 35,000  Level FlightAware
04:25AM 53.7513 -8.8437 276° West 482 555 35,000  Level FlightAware UK
04:25AM 53.7427 -8.7135 276° West 482 555 35,000  Level FlightAware UK
04:25AM 53.7420 -8.7100 276° West 557 641 35,000  Level FlightAware
04:26AM 53.7310 -8.5490 97° East 556 640 35,000  Level FlightAware
04:27AM 53.7292 -8.5253 97° East 559 643 35,000  Level FlightAware ADS-B (EGAA / BFS)
04:27AM 53.7062 -8.1947 97° East 476 548 35,000  Level FlightAware UK
04:27AM 53.7050 -8.1760 97° East 561 646 35,000  Level FlightAware
04:28AM 53.6966 -8.0661 97° East 562 647 35,000  Level FlightAware ADS-B (EGAA / BFS)
04:28AM 53.6914 -7.9941 97° East 561 646 35,000  Level FlightAware ADS-B (EGAA / BFS)
04:29AM 53.6809 -7.8540 97° East 560 644 35,000  Level FlightAware ADS-B (EGAA / BFS)
04:29AM 53.6650 -7.6441 97° East 562 647 35,000  Level FlightAware ADS-B (EGAA / BFS)
04:30AM 53.6478 -7.4232 97° East 561 646 35,000  Level FlightAware ADS-B (EGAA / BFS)
04:31AM 53.6345 -7.2555 98° East 559 643 35,000  Level FlightAware ADS-B (EGAA / BFS)
04:31AM 53.6234 -7.1182 98° East 562 647 35,000  Level FlightAware ADS-B (EGAA / BFS)
04:32AM 53.6127 -6.9880 98° East 560 644 35,000  Level FlightAware ADS-B (EGAA / BFS)
04:32AM 53.6020 -6.8594 98° East 561 646 35,000  Level FlightAware ADS-B (EGAA / BFS)
04:33AM 53.5908 -6.7257 98° East 562 647 35,000  Level FlightAware ADS-B (EIDW / DUB)
04:33AM 53.5797 -6.5966 98° East 560 644 35,000  Level FlightAware ADS-B (EGAA / BFS)
04:34AM 53.5685 -6.4667 98° East 560 644 35,000  Level FlightAware ADS-B (EGAA / BFS)
04:34AM 53.5569 -6.3348 98° East 557 641 35,000  Level FlightAware ADS-B (EGAA / BFS)
04:35AM 53.5468 -6.2206 98° East 555 639 35,000  Level FlightAware ADS-B (EIDW / DUB)
04:35AM 53.5352 -6.0920 99° East 558 642 35,000  Level FlightAware ADS-B (EIDW / DUB)
04:36AM 53.5226 -5.9546 99° East 564 649 35,000  Level FlightAware ADS-B (EIDW / DUB)
04:37AM 53.5077 -5.7928 99° East 566 651 35,000  Level FlightAware ADS-B (EGAA / BFS)
04:37AM 53.4955 -5.6621 99° East 566 651 35,000  Level FlightAware ADS-B (EGAA / BFS)
04:37AM 53.4925 -5.6301 99° East 570 656 35,000  Level FlightAware ADS-B
04:38AM 53.4844 -5.4740 95° East 576 663 35,000  Level FlightAware ADS-B (EGFH / SWS)
04:38AM 53.4812 -5.3339 92° East 577 664 35,000  Level FlightAware ADS-B (EGFH / SWS)
04:39AM 53.4785 -5.1937 92° East 577 664 35,000  Level FlightAware ADS-B (EGBS)
04:39AM 53.4749 -5.0587 93° East 578 665 35,000  Level FlightAware ADS-B (EGFH / SWS)
04:40AM 53.4707 -4.9238 93° East 580 667 35,000  Level FlightAware ADS-B (EGFH / SWS)
04:40AM 53.4660 -4.7769 93° East 474 545 35,000 120 Level FlightAware UK
04:41AM 53.4649 -4.7439 93° East 563 648 35,100  Climbing FlightAware ADS-B (EGFH / SWS)
04:41AM 53.4603 -4.6052 93° East 562 647 35,000 -120 Descending FlightAware ADS-B (EGFH / SWS)
04:42AM 53.4555 -4.4692 93° East 567 652 35,000  Level FlightAware ADS-B (EGFH / SWS)
04:42AM 53.4508 -4.3398 93° East 565 650 35,000  Level FlightAware ADS-B (EGGP / LPL)
04:43AM 53.4458 -4.2027 93° East 562 647 35,000  Level FlightAware ADS-B (EGXW / WTN)
04:43AM 53.4405 -4.0641 94° East 561 646 35,000  Level FlightAware ADS-B (EGFH / SWS)
04:44AM 53.4348 -3.9216 94° East 559 643 35,000  Level FlightAware ADS-B (EGXW / WTN)
04:44AM 53.4336 -3.8905 94° East 573 659 35,000  Level FlightAware ADS-B
04:44AM 53.4300 -3.8034 94° East 559 643 35,000  Level FlightAware ADS-B
04:45AM 53.4217 -3.6030 94° East 559 643 35,000  Level FlightAware ADS-B (EGBS)
04:45AM 53.4177 -3.5122 94° East 561 646 35,000  Level FlightAware ADS-B
04:45AM 53.4161 -3.4752 94° East 560 644 35,000  Level FlightAware ADS-B (EGBS)
04:45AM 53.4154 -3.4596 94° East 559 643 35,000  Level FlightAware ADS-B (EGOW)
04:46AM 53.4118 -3.3769 94° East 560 644 35,000  Level FlightAware ADS-B
04:46AM 53.4107 -3.3536 94° East 561 646 35,000  Level FlightAware ADS-B (EGFH / SWS)
04:46AM 53.4059 -3.2468 94° East 560 644 35,000  Level FlightAware ADS-B
04:47AM 53.4027 -3.1773 94° East 556 640 35,000  Level FlightAware ADS-B (EGOW)
04:47AM 53.4021 -3.1636 95° East 557 641 35,000  Level FlightAware ADS-B (EGXW / WTN)
04:47AM 53.3989 -3.0958 94° East 559 643 35,000  Level FlightAware ADS-B
04:47AM 53.3967 -3.0493 94° East 559 643 35,000  Level FlightAware ADS-B
04:47AM 53.3943 -3.0001 95° East 562 647 35,000  Level FlightAware ADS-B (EGXW / WTN)
04:47AM 53.3912 -2.9350 95° East 561 646 35,000  Level FlightAware ADS-B
04:48AM 53.3876 -2.8634 95° East 568 654 35,000  Level FlightAware ADS-B (EGXW / WTN)
04:48AM 53.3852 -2.8135 95° East 569 655 35,000  Level FlightAware ADS-B (EGBS)
04:48AM 53.3821 -2.7505 95° East 570 656 35,000  Level FlightAware ADS-B
04:49AM 53.3767 -2.6408 95° East 571 657 35,000  Level FlightAware ADS-B (EGCD)
04:49AM 53.3751 -2.6109 95° East 572 658 35,000  Level FlightAware ADS-B
04:49AM 53.3700 -2.5133 95° East 573 659 35,000  Level FlightAware ADS-B (EGGP / LPL)
04:49AM 53.3669 -2.4542 95° East 573 659 35,000  Level FlightAware ADS-B
04:50AM 53.3622 -2.3644 95° East 573 659 35,000  Level FlightAware ADS-B (EGCD)
04:50AM 53.3569 -2.2714 95° East 568 654 35,000  Level FlightAware ADS-B (EGCD)
04:50AM 53.3529 -2.2221 98° East 563 648 35,000  Level FlightAware ADS-B
04:50AM 53.3451 -2.1478 100° East 572 658 35,000  Level FlightAware ADS-B
04:51AM 53.3393 -2.0915 100° East 561 646 35,000  Level FlightAware ADS-B (EGCD)
04:51AM 53.3315 -2.0158 100° East 559 643 35,000  Level FlightAware ADS-B
04:51AM 53.3233 -1.9359 100° East 559 643 35,000  Level FlightAware ADS-B (EGWU / NHT)
04:52AM 53.3182 -1.8867 100° East 559 643 35,000  Level FlightAware ADS-B
04:52AM 53.3079 -1.7890 100° East 560 644 35,000  Level FlightAware ADS-B (EGBS)
04:52AM 53.3038 -1.7499 100° East 560 644 35,000  Level FlightAware ADS-B
04:52AM 53.2932 -1.6511 100° East 562 647 35,000  Level FlightAware ADS-B (EGBS)
04:53AM 53.2896 -1.6170 100° East 563 648 35,000  Level FlightAware ADS-B
04:53AM 53.2775 -1.5044 100° East 564 649 35,000  Level FlightAware ADS-B (EGCD)
04:53AM 53.2731 -1.4642 100° East 564 649 35,000  Level FlightAware ADS-B
04:54AM 53.2632 -1.3741 100° East 568 654 35,000  Level FlightAware ADS-B (EGCD)
04:54AM 53.2571 -1.3173 100° East 568 654 35,000  Level FlightAware ADS-B
04:54AM 53.2489 -1.2435 100° East 566 651 35,000  Level FlightAware ADS-B (EGXW / WTN)
04:54AM 53.2397 -1.1595 100° East 565 650 35,000  Level FlightAware ADS-B
04:54AM 53.2379 -1.1433 101° East 565 650 35,000  Level FlightAware ADS-B (EGBS)
04:55AM 53.2280 -1.0555 101° East 563 648 35,000  Level FlightAware ADS-B
04:55AM 53.2243 -1.0224 101° East 562 647 35,000  Level FlightAware ADS-B
04:55AM 53.2225 -1.0063 101° East 561 646 35,000  Level FlightAware ADS-B (EGBS)
04:55AM 53.2174 -0.9606 101° East 560 644 35,000  Level FlightAware ADS-B (EGBS)
04:55AM 53.2151 -0.9403 101° East 556 640 35,000  Level FlightAware ADS-B
04:55AM 53.2123 -0.9159 101° East 557 641 35,000  Level FlightAware ADS-B (EGBS)
04:55AM 53.2076 -0.8740 101° East 557 641 35,000  Level FlightAware ADS-B
04:56AM 53.1972 -0.7829 101° East 550 633 35,000  Level FlightAware ADS-B (EGCD)
04:56AM 53.1929 -0.7454 101° East 552 635 35,000  Level FlightAware ADS-B
04:56AM 53.1924 -0.7412 101° East 550 633 35,000  Level FlightAware ADS-B (EGCD)
04:57AM 53.1778 -0.6152 101° East 547 629 35,000  Level FlightAware ADS-B (EGCD)
04:57AM 53.1749 -0.5905 101° East 548 631 35,000  Level FlightAware ADS-B
04:57AM 53.1736 -0.5790 101° East 547 629 35,000  Level FlightAware ADS-B
04:57AM 53.1592 -0.4555 101° East 543 625 35,000  Level FlightAware ADS-B (EGLG)
04:57AM 53.1576 -0.4424 101° East 545 627 35,000  Level FlightAware ADS-B
04:57AM 53.1528 -0.4016 101° East 541 623 35,000  Level FlightAware ADS-B (EGBB / BHX)
04:57AM 53.1503 -0.3803 101° East 542 624 35,000  Level FlightAware ADS-B (EGSQ)
04:58AM 53.1429 -0.3182 101° East 543 625 35,000  Level FlightAware ADS-B
04:58AM 53.1419 -0.3100 101° East 544 626 35,000  Level FlightAware ADS-B (EGSQ)
04:58AM 53.1367 -0.2658 101° East 544 626 35,000  Level FlightAware ADS-B
04:58AM 53.1275 -0.1885 101° East 547 629 35,000  Level FlightAware ADS-B
04:58AM 53.1221 -0.1440 101° East 549 632 35,000  Level FlightAware ADS-B (EGLG)
04:59AM 53.1120 -0.0605 101° East 552 635 35,000  Level FlightAware ADS-B
04:59AM 53.1068 -0.0173 101° East 552 635 35,000  Level FlightAware ADS-B (EGWU / NHT)
04:59AM 53.0964 0.0680 101° East 551 634 35,000  Level FlightAware ADS-B
05:00AM 53.0898 0.1223 101° East 546 628 35,000  Level FlightAware ADS-B (EGCD)
05:00AM 53.0813 0.1912 102° East 545 627 35,000  Level FlightAware ADS-B
05:00AM 53.0715 0.2702 102° East 541 623 35,000  Level FlightAware ADS-B (EGXW / WTN)
05:00AM 53.0654 0.3189 102° East 542 624 35,000  Level FlightAware ADS-B
05:01AM 53.0557 0.3967 102° East 548 631 35,000  Level FlightAware ADS-B (EGXW / WTN)
05:01AM 53.0493 0.4476 102° East 548 631 35,000  Level FlightAware ADS-B
05:01AM 53.0406 0.5165 102° East 548 631 35,000  Level FlightAware ADS-B (EGWU / NHT)
05:01AM 53.0332 0.5748 102° East 549 632 35,000  Level FlightAware ADS-B
05:02AM 53.0231 0.6538 102° East 551 634 35,000  Level FlightAware ADS-B (EGXW / WTN)
05:02AM 53.0169 0.7025 102° East 551 634 35,000  Level FlightAware ADS-B
05:02AM 53.0047 0.7975 102° East 552 635 35,000  Level FlightAware ADS-B (EGLG)
05:02AM 53.0007 0.8289 102° East 552 635 35,000  Level FlightAware ADS-B
05:03AM 52.9873 0.9319 102° East 550 633 35,000  Level FlightAware ADS-B (EGXW / WTN)
05:03AM 52.9841 0.9566 102° East 550 633 35,000  Level FlightAware ADS-B
05:03AM 52.9789 0.9969 102° East 551 634 35,000  Level FlightAware ADS-B
05:03AM 52.9682 1.0810 102° East 552 635 35,000  Level FlightAware ADS-B
05:04AM 52.9535 1.2122 100° East 552 635 35,000  Level FlightAware ADS-B
05:04AM 52.9540 1.2079 280° West 552 635 35,000  Level FlightAware ADS-B (EGXW / WTN)
05:04AM 52.9391 1.3391 101° East 554 638 35,000  Level FlightAware ADS-B
05:04AM 52.9410 1.3225 281° West 555 639 35,000  Level FlightAware ADS-B (EGLG)
05:05AM 52.9199 1.5025 101° East 557 641 35,000  Level FlightAware ADS-B
05:05AM 52.9199 1.5025 187° South 558 642 35,000  Level FlightAware ADS-B (EGLG)
05:06AM 52.9030 1.6448 101° East 560 644 35,000  Level FlightAware ADS-B
05:06AM 52.9018 1.6549 101° East 560 644 35,000  Level FlightAware ADS-B (EGLC / LCY)
05:06AM 52.8878 1.7710 101° East 557 641 35,000  Level FlightAware ADS-B
05:06AM 52.8917 1.7385 281° West 556 640 35,000  Level FlightAware ADS-B (EGLG)
05:07AM 52.8719 1.9014 101° East 555 639 35,000  Level FlightAware ADS-B
05:07AM 52.8669 1.9421 101° East 555 639 35,000  Level FlightAware ADS-B (EGLC / LCY)
05:07AM 52.8566 2.0267 101° East 554 638 35,000  Level FlightAware ADS-B
05:07AM 52.8540 2.0474 102° East 555 639 35,000  Level FlightAware ADS-B (ZBTJ / TSN)
05:08AM 52.8408 2.1536 102° East 557 641 35,000  Level FlightAware ADS-B
05:08AM 52.8220 2.3060 101° East 560 644 35,000  Level FlightAware ADS-B
05:09AM 52.8081 2.5007 101° East 474 545 35,000  Level FlightAware UK
05:10AM 52.7991 2.6285 97° East 478 550 35,000  Level FlightAware UK
05:10AM 52.7990 2.6260 97° East 563 648 35,000  Level FlightAware
05:11AM 52.7780 2.8790 97° East 562 647 35,000  Level FlightAware
05:11AM 52.7759 2.9089 97° East 474 545 35,000  Level FlightAware UK
05:11AM 52.7670 3.0150 97° East 563 648 35,000  Level FlightAware
05:11AM 52.7652 3.0361 97° East 474 545 35,000  Level FlightAware UK
05:12AM 52.7560 3.1500 98° East 564 649 35,000  Level FlightAware
05:12AM 52.7645 3.0450 278° West 564 649 35,000  Level FlightAware ADS-B (EGLG)
05:13AM 52.7326 3.4184 278° West 474 545 35,000  Level FlightAware UK
05:13AM 52.7212 3.5456 98° East 474 545 35,000  Level FlightAware UK
05:13AM 52.7210 3.5470 98° East 561 646 35,000  Level FlightAware
05:14AM 52.7090 3.6780 99° East 564 649 35,000  Level FlightAware
05:14AM 52.6960 3.8290 98° East 569 655 35,000  Level FlightAware
05:15AM 52.6830 3.9650 99° East 566 651 35,000  Level FlightAware
05:16AM 52.6660 4.1500 99° East 559 643 35,000  Level FlightAware
05:16AM 52.6500 4.3220 99° East 557 641 35,000  Level FlightAware
05:17AM 52.6310 4.5110 99° East 557 641 35,000  Level FlightAware
05:18AM 52.6150 4.6800 99° East 560 644 35,000  Level FlightAware
05:18AM 52.6080 4.8050 95° East 566 651 35,000  Level FlightAware
05:19AM 52.6130 5.0290 88° East 564 649 35,000  Level FlightAware
05:20AM 52.6160 5.1850 88° East 563 648 35,000  Level FlightAware
05:20AM 52.6186 5.2740 88° East 474 545 35,000  Level FlightAware UK
05:20AM 52.6190 5.3880 89° East 562 647 35,000  Level FlightAware
05:21AM 52.6210 5.5640 89° East 562 647 35,000  Level FlightAware
05:21AM 52.6252 5.6074 89° East 476 548 35,000  Level FlightAware UK
05:22AM 52.6266 5.7354 89° East 476 548 35,000  Level FlightAware UK
05:22AM 52.6230 5.7440 89° East 561 646 35,000  Level FlightAware
05:22AM 52.6231 5.7940 90° East 561 646 35,000  Level FlightAware ADS-B (EDLW / DTM)
05:23AM 52.6250 6.0410 89° East 561 646 35,000  Level FlightAware
05:23AM 52.6256 6.0992 89° East 561 646 35,000  Level FlightAware ADS-B (EDLW / DTM)
05:24AM 52.6267 6.2747 89° East 562 647 35,000  Level FlightAware ADS-B (EDLW / DTM)
05:24AM 52.6273 6.4152 89° East 561 646 35,000  Level FlightAware ADS-B (EDLW / DTM)
05:25AM 52.6279 6.5511 90° East 559 643 35,000  Level FlightAware ADS-B (EDLW / DTM)
05:26AM 52.6283 6.7351 90° East 559 643 35,000  Level FlightAware ADS-B (EDLW / DTM)
05:26AM 52.6284 6.9103 90° East 558 642 35,000  Level FlightAware ADS-B (EDLW / DTM)
05:27AM 52.6283 7.0371 90° East 557 641 35,000  Level FlightAware ADS-B (EDLW / DTM)
05:27AM 52.6281 7.1674 90° East 558 642 35,000  Level FlightAware ADS-B (EDLW / DTM)
05:28AM 52.6278 7.2989 90° East 559 643 35,000  Level FlightAware ADS-B (EDLW / DTM)
05:28AM 52.6272 7.4453 90° East 558 642 35,000  Level FlightAware ADS-B (EDLW / DTM)
05:29AM 52.6266 7.5722 90° East 558 642 35,000  Level FlightAware ADS-B (EDLW / DTM)
05:29AM 52.6258 7.6990 91° East 557 641 35,000  Level FlightAware ADS-B (EDLW / DTM)
05:30AM 52.6249 7.8307 91° East 556 640 35,000  Level FlightAware ADS-B (EDLW / DTM)
05:31AM 52.6239 7.9547 91° East 555 639 35,000  Level FlightAware ADS-B (EDLW / DTM)
05:31AM 52.6220 8.1270 91° East 553 636 35,000  Level FlightAware
05:32AM 52.6210 8.2430 91° East 553 636 35,000  Level FlightAware
05:32AM 52.6191 8.4155 91° East 553 636 35,000  Level FlightAware ADS-B (EDLW / DTM)
05:33AM 52.6174 8.5398 91° East 553 636 35,000  Level FlightAware ADS-B (EDLW / DTM)
05:33AM 52.6154 8.6713 91° East 552 635 35,000  Level FlightAware ADS-B (EDLW / DTM)
05:34AM 52.6134 8.7974 91° East 550 633 35,000  Level FlightAware ADS-B (EDLW / DTM)
05:34AM 52.6110 8.9370 92° East 550 633 35,000  Level FlightAware
05:35AM 52.6098 9.0174 91° East 550 633 35,000  Level FlightAware ADS-B (EDLW / DTM)
05:35AM 52.6070 9.1684 92° East 550 633 35,000  Level FlightAware ADS-B (EDLW / DTM)
05:36AM 52.6041 9.3176 92° East 548 631 35,000  Level FlightAware ADS-B (EDLW / DTM)
05:36AM 52.6016 9.4444 92° East 546 628 35,000  Level FlightAware ADS-B (EDLW / DTM)
05:37AM 52.5960 9.6910 92° East 543 625 35,000  Level FlightAware
05:38AM 52.5940 9.7810 92° East 544 626 35,000  Level FlightAware
05:39AM 52.5890 9.9780 92° East 545 627 35,000  Level FlightAware
05:40AM 52.5810 10.2660 93° East 545 627 35,000  Level FlightAware
05:40AM 52.5760 10.4400 93° East 540 621 35,000  Level FlightAware
05:41AM 52.5710 10.6030 93° East 538 619 35,000  Level FlightAware
05:42AM 52.5670 10.7360 93° East 537 618 35,000  Level FlightAware
05:42AM 52.5620 10.8930 93° East 536 617 35,000  Level FlightAware
05:43AM 52.5570 11.0340 93° East 540 621 35,000  Level FlightAware
05:44AM 52.5510 11.1990 93° East 541 623 35,000 180 Level FlightAware
05:44AM 52.5450 11.3590 93° East 540 621 35,300 600 Climbing FlightAware
05:45AM 52.5370 11.5800 93° East 539 620 36,000 780 Climbing FlightAware
05:46AM 52.5290 11.7460 94° East 540 621 36,600 780 Climbing FlightAware
05:46AM 52.5210 11.8780 96° East 539 620 37,000 360 Climbing FlightAware
05:47AM 52.5120 12.0200 96° East 548 631 37,000  Level FlightAware
05:48AM 52.5010 12.2000 96° East 553 636 37,000  Level FlightAware
05:49AM 52.4860 12.4350 96° East 552 635 37,000  Level FlightAware
05:50AM 52.4680 12.7030 96° East 554 638 37,000  Level FlightAware
05:50AM 52.4570 12.8710 96° East 554 638 37,000  Level FlightAware
05:51AM 52.4470 13.0220 96° East 557 641 37,000  Level FlightAware
05:51AM 52.4370 13.1620 97° East 557 641 37,000  Level FlightAware
05:52AM 52.4240 13.3480 96° East 557 641 37,000  Level FlightAware
05:53AM 52.4090 13.5490 97° East 559 643 37,000  Level FlightAware
05:54AM 52.3880 13.8310 97° East 559 643 37,000  Level FlightAware
05:55AM 52.3740 14.0100 97° East 559 643 37,000  Level FlightAware
05:55AM 52.3630 14.1490 97° East 557 641 37,000  Level FlightAware
05:56AM 52.3520 14.2860 97° East 556 640 37,000  Level FlightAware
05:57AM 52.3380 14.4670 97° East 555 639 37,000  Level FlightAware
05:57AM 52.3240 14.6330 98° East 555 639 37,000  Level FlightAware
05:58AM 52.3060 14.7980 100° East 554 638 37,000  Level FlightAware
05:59AM 52.2730 15.0740 101° East 554 638 37,000  Level FlightAware
06:00AM 52.2550 15.2240 101° East 554 638 37,000  Level FlightAware
06:00AM 52.2390 15.3570 101° East 554 638 37,000  Level FlightAware
06:01AM 52.2070 15.6230 101° East 553 636 37,000  Level FlightAware
06:02AM 52.1890 15.7690 101° East 553 636 37,000  Level FlightAware
06:03AM 52.1690 15.9290 101° East 552 635 37,000  Level FlightAware
06:03AM 52.1500 16.0820 101° East 552 635 37,000  Level FlightAware
06:04AM 52.1320 16.2270 101° East 552 635 37,000  Level FlightAware
06:05AM 52.1070 16.4190 102° East 552 635 37,000  Level FlightAware
06:05AM 52.0890 16.5590 102° East 550 633 37,000  Level FlightAware
06:06AM 52.0650 16.7430 102° East 551 634 37,000  Level FlightAware
06:06AM 52.0490 16.8590 103° East 551 634 37,000  Level FlightAware
06:07AM 52.0290 17.0140 102° East 551 634 37,000  Level FlightAware
06:08AM 52.0040 17.1970 102° East 550 633 37,000  Level FlightAware
06:09AM 51.9680 17.4540 103° East 547 629 37,000  Level FlightAware
06:09AM 51.9530 17.5660 102° East 547 629 37,000  Level FlightAware
06:10AM 51.9330 17.7100 103° East 547 629 37,000  Level FlightAware
06:10AM 51.9170 17.8210 103° East 547 629 37,000  Level FlightAware
06:11AM 51.8974 17.9572 103° East 549 632 37,000  Level FlightAware ADS-B
06:12AM 51.8793 18.0824 103° East 548 631 37,000  Level FlightAware ADS-B
06:12AM 51.8580 18.2310 103° East 546 628 37,000  Level FlightAware
06:13AM 51.8360 18.3820 103° East 546 628 37,000  Level FlightAware
06:13AM 51.8287 18.4284 104° East 547 629 37,000  Level FlightAware ADS-B
06:14AM 51.7905 18.6847 103° East 546 628 37,000  Level FlightAware ADS-B (EPSY / SZY)
06:15AM 51.7692 18.8259 104° East 546 628 37,000  Level FlightAware ADS-B (EPSY / SZY)
06:15AM 51.7496 18.9544 104° East 546 628 37,000  Level FlightAware ADS-B (EPSY / SZY)
06:16AM 51.7319 19.0700 104° East 545 627 37,000  Level FlightAware ADS-B (EPSY / SZY)
06:16AM 51.7059 19.2375 104° East 546 628 37,000  Level FlightAware ADS-B (EPSY / SZY)
06:17AM 51.6844 19.3751 104° East 546 628 37,000  Level FlightAware ADS-B (EPSY / SZY)
06:18AM 51.6560 19.5540 104° East 544 626 37,000  Level FlightAware
06:18AM 51.6370 19.6760 104° East 546 628 37,000  Level FlightAware
06:19AM 51.6201 19.7798 105° East 545 627 37,000  Level FlightAware ADS-B (EPSY / SZY)
06:19AM 51.5951 19.9348 105° East 546 628 37,000  Level FlightAware ADS-B (EPSY / SZY)
06:20AM 51.5843 20.0013 105° East 546 628 37,000  Level FlightAware ADS-B
06:20AM 51.5635 20.1282 105° East 544 626 37,000  Level FlightAware ADS-B
06:21AM 51.5423 20.2572 105° East 546 628 37,000  Level FlightAware ADS-B (EPSY / SZY)
06:21AM 51.5225 20.3761 105° East 545 627 37,000  Level FlightAware ADS-B
06:22AM 51.5014 20.5022 105° East 546 628 37,000  Level FlightAware ADS-B
06:22AM 51.4779 20.6416 105° East 550 633 37,000  Level FlightAware ADS-B (EPSY / SZY)
06:23AM 51.4552 20.7756 105° East 548 631 37,000  Level FlightAware ADS-B
06:24AM 51.4335 20.9022 105° East 548 631 37,000  Level FlightAware ADS-B (EPSY / SZY)
06:24AM 51.4268 20.9412 105° East 545 627 37,000  Level FlightAware ADS-B
06:24AM 51.4198 20.9817 105° East 545 627 37,000  Level FlightAware ADS-B
06:24AM 51.3974 21.1110 105° East 548 631 37,000  Level FlightAware ADS-B (EPSY / SZY)
06:25AM 51.3909 21.1484 106° East 546 628 37,000  Level FlightAware ADS-B
06:25AM 51.3844 21.1858 105° East 546 628 37,000  Level FlightAware ADS-B
06:25AM 51.3778 21.2231 106° East 546 628 37,000  Level FlightAware ADS-B
06:25AM 51.3566 21.3444 106° East 547 629 37,000  Level FlightAware ADS-B (EPSY / SZY)
06:26AM 51.3360 21.4609 106° East 548 631 37,000  Level FlightAware ADS-B (EPSY / SZY)
06:26AM 51.3293 21.4982 106° East 545 627 37,000  Level FlightAware ADS-B
06:27AM 51.3070 21.6238 106° East 544 626 37,000  Level FlightAware ADS-B
06:27AM 51.2860 21.7403 106° East 542 624 37,000  Level FlightAware ADS-B
06:28AM 51.2658 21.8520 106° East 543 625 37,000  Level FlightAware ADS-B
06:28AM 51.2447 21.9685 106° East 545 627 37,000  Level FlightAware ADS-B
06:29AM 51.2224 22.0904 106° East 549 632 37,000  Level FlightAware ADS-B
06:29AM 51.2005 22.2095 106° East 550 633 37,000  Level FlightAware ADS-B
06:30AM 51.1791 22.3244 106° East 548 631 37,000  Level FlightAware ADS-B
06:30AM 51.1557 22.4500 106° East 542 624 37,000  Level FlightAware ADS-B
06:31AM 51.1345 22.5632 107° East 541 623 37,000  Level FlightAware ADS-B
06:31AM 51.1117 22.6838 107° East 542 624 37,000  Level FlightAware ADS-B
06:32AM 51.0747 22.8777 107° East 541 623 37,000  Level FlightAware ADS-B
06:33AM 51.0514 22.9993 107° East 540 621 37,000  Level FlightAware ADS-B
06:33AM 51.0293 23.1136 107° East 543 625 37,000  Level FlightAware ADS-B
06:34AM 51.0074 23.2263 107° East 544 626 37,000  Level FlightAware ADS-B
06:34AM 50.9832 23.3505 107° East 544 626 37,000  Level FlightAware ADS-B
06:35AM 50.9610 23.4634 107° East 539 620 37,000  Level FlightAware ADS-B
06:35AM 50.9384 23.5772 107° East 537 618 37,000  Level FlightAware ADS-B
06:36AM 50.9162 23.6884 107° East 536 617 37,000  Level FlightAware ADS-B
06:36AM 50.9166 23.6870 290° West 539 620 37,000  Level FlightAware ADS-B (EPSY / SZY)
06:36AM 50.8730 23.8336 115° Southeast 535 616 37,000  Level FlightAware ADS-B
06:37AM 50.8347 23.9418 119° Southeast 536 617 37,000  Level FlightAware ADS-B
06:37AM 50.7978 24.0471 119° Southeast 538 619 37,000  Level FlightAware ADS-B
06:38AM 50.7625 24.1480 119° Southeast 539 620 37,000  Level FlightAware ADS-B
06:38AM 50.7234 24.2606 119° Southeast 539 620 37,000  Level FlightAware ADS-B
06:39AM 50.6871 24.3642 119° Southeast 540 621 37,000  Level FlightAware ADS-B
06:39AM 50.6517 24.4651 119° Southeast 541 623 37,000  Level FlightAware ADS-B
06:40AM 50.6126 24.5755 119° Southeast 537 618 37,000  Level FlightAware ADS-B
06:41AM 50.5655 24.7084 119° Southeast 535 616 37,000  Level FlightAware ADS-B
06:41AM 50.5100 24.8640 119° Southeast 538 619 37,000  Level FlightAware
06:42AM 50.4710 24.9720 120° Southeast 539 620 37,000  Level FlightAware
06:43AM 50.3890 25.2000 119° Southeast 544 626 37,000  Level FlightAware
06:44AM 50.3480 25.3220 118° Southeast 545 627 37,000  Level FlightAware
06:44AM 50.3080 25.4820 111° Southeast 546 628 37,000  Level FlightAware
06:45AM 50.2660 25.6470 112° Southeast 541 623 37,000  Level FlightAware
06:46AM 50.2090 25.8720 112° Southeast 541 623 37,000  Level FlightAware
06:47AM 50.1850 25.9660 112° Southeast 542 624 37,000  Level FlightAware
06:47AM 50.1430 26.1290 112° Southeast 546 628 37,000  Level FlightAware
06:48AM 50.0810 26.3660 112° Southeast 544 626 37,000  Level FlightAware
06:49AM 50.0400 26.5220 112° Southeast 544 626 37,000  Level FlightAware
06:50AM 50.0050 26.6580 112° Southeast 545 627 37,000  Level FlightAware
06:50AM 49.9600 26.8250 113° Southeast 545 627 37,000  Level FlightAware
06:51AM 49.9000 27.0500 112° Southeast 541 623 37,000  Level FlightAware
06:52AM 49.8620 27.1890 113° Southeast 541 623 37,000  Level FlightAware
06:53AM 49.8250 27.3270 113° Southeast 538 619 37,000  Level FlightAware
06:54AM 49.7800 27.4890 113° Southeast 539 620 37,000  Level FlightAware
06:54AM 49.7520 27.5900 113° Southeast 539 620 37,000  Level FlightAware
06:55AM 49.7130 27.7330 113° Southeast 535 616 37,000  Level FlightAware
06:55AM 49.6780 27.8620 113° Southeast 532 612 37,000  Level FlightAware
06:56AM 49.6540 27.9590 111° Southeast 531 611 37,000  Level FlightAware
06:57AM 49.6090 28.1340 112° Southeast 529 609 37,000  Level FlightAware
06:57AM 49.5770 28.2560 112° Southeast 527 606 37,000  Level FlightAware
06:58AM 49.5130 28.4960 112° Southeast 527 606 37,000  Level FlightAware
06:59AM 49.4560 28.7130 112° Southeast 522 601 37,000  Level FlightAware
07:00AM 49.4280 28.8160 113° Southeast 523 602 37,000  Level FlightAware
07:01AM 49.3930 28.9480 112° Southeast 525 604 37,000  Level FlightAware
07:01AM 49.3480 29.1120 113° Southeast 526 605 37,000  Level FlightAware
07:02AM 49.3220 29.2090 112° Southeast 528 608 37,000  Level FlightAware
07:02AM 49.2840 29.3460 113° Southeast 530 610 37,000  Level FlightAware
07:03AM 49.2270 29.5530 113° Southeast 530 610 37,000  Level FlightAware
07:04AM 49.1860 29.7020 113° Southeast 528 608 37,000  Level FlightAware
07:05AM 49.1620 29.7870 113° Southeast 527 606 37,000  Level FlightAware
07:05AM 49.1240 29.9210 113° Southeast 527 606 37,000  Level FlightAware
07:06AM 49.0860 30.0570 113° Southeast 529 609 37,000  Level FlightAware
07:06AM 49.0500 30.1820 114° Southeast 533 613 37,000  Level FlightAware
07:07AM 49.0030 30.3470 113° Southeast 531 611 37,000  Level FlightAware
07:08AM 48.9720 30.4530 114° Southeast 530 610 37,000  Level FlightAware
07:09AM 48.9310 30.5970 113° Southeast 526 605 37,000  Level FlightAware
07:09AM 48.8950 30.7220 114° Southeast 531 611 37,000  Level FlightAware
07:10AM 48.8600 30.8410 114° Southeast 530 610 37,000  Level FlightAware
07:10AM 48.8230 30.9650 114° Southeast 530 610 37,000  Level FlightAware
07:11AM 48.8060 31.0260 113° Southeast 529 609 37,000  Level FlightAware
07:12AM 48.7500 31.2120 114° Southeast 529 609 37,000  Level FlightAware
07:12AM 48.7170 31.3230 114° Southeast 526 605 37,000  Level FlightAware
07:13AM 48.6710 31.4760 114° Southeast 530 610 37,000  Level FlightAware
07:14AM 48.6050 31.6940 115° Southeast 531 611 37,000  Level FlightAware
07:15AM 48.5700 31.8120 114° Southeast 530 610 37,000  Level FlightAware
07:15AM 48.5180 31.9800 115° Southeast 530 610 37,000  Level FlightAware
07:16AM 48.4860 32.0860 114° Southeast 529 609 37,000  Level FlightAware
07:17AM 48.4450 32.2170 115° Southeast 527 606 37,000  Level FlightAware
07:17AM 48.3990 32.3670 115° Southeast 524 603 37,000  Level FlightAware
07:18AM 48.3540 32.5110 115° Southeast 523 602 37,000  Level FlightAware
07:19AM 48.3200 32.6200 115° Southeast 522 601 37,000  Level FlightAware
07:20AM 48.2470 32.8500 115° Southeast 520 598 37,000  Level FlightAware
07:20AM 48.2040 32.9850 116° Southeast 516 594 37,000  Level FlightAware
07:21AM 48.1670 33.0990 116° Southeast 517 595 37,000  Level FlightAware
07:22AM 48.1310 33.2120 115° Southeast 518 596 37,000  Level FlightAware
07:22AM 48.0900 33.3400 116° Southeast 517 595 37,000  Level FlightAware
07:23AM 48.0440 33.4820 116° Southeast 516 594 37,000  Level FlightAware
07:24AM 48.0090 33.5880 116° Southeast 517 595 37,000  Level FlightAware
07:24AM 47.9670 33.7150 116° Southeast 516 594 37,000  Level FlightAware
07:25AM 47.9280 33.8350 116° Southeast 515 593 37,000  Level FlightAware
07:25AM 47.8890 33.9520 116° Southeast 516 594 37,000  Level FlightAware
07:26AM 47.8450 34.0840 116° Southeast 517 595 37,000  Level FlightAware
07:27AM 47.8030 34.2110 116° Southeast 518 596 37,000  Level FlightAware
07:27AM 47.7690 34.3110 117° Southeast 517 595 37,000  Level FlightAware
07:28AM 47.7310 34.4240 117° Southeast 515 593 37,000  Level FlightAware
07:29AM 47.6880 34.5530 116° Southeast 514 592 37,000  Level FlightAware
07:29AM 47.6530 34.6530 117° Southeast 511 588 37,000  Level FlightAware
07:30AM 47.6190 34.7550 116° Southeast 510 587 37,000  Level FlightAware
07:30AM 47.5870 34.8490 117° Southeast 511 588 37,000  Level FlightAware
07:31AM 47.5440 34.9720 117° Southeast 510 587 37,000  Level FlightAware
07:31AM 47.5160 35.0520 117° Southeast 511 588 37,000  Level FlightAware
07:33AM 47.4300 35.3010 117° Southeast 510 587 37,000  Level FlightAware
07:33AM 47.4000 35.3860 118° Southeast 508 585 37,000  Level FlightAware
07:34AM 47.3170 35.6210 117° Southeast 506 582 37,000  Level FlightAware
07:35AM 47.2700 35.7530 118° Southeast 502 578 37,000  Level FlightAware
07:36AM 47.2310 35.8630 118° Southeast 500 575 37,000  Level FlightAware
07:36AM 47.1900 35.9790 117° Southeast 501 577 37,000  Level FlightAware
07:37AM 47.1540 36.0780 118° Southeast 501 577 37,000  Level FlightAware
07:38AM 47.1090 36.2020 118° Southeast 500 575 37,000  Level FlightAware
07:38AM 47.0680 36.3170 118° Southeast 502 578 37,000  Level FlightAware
07:39AM 46.9920 36.5250 118° Southeast 500 575 37,000  Level FlightAware
07:40AM 46.9480 36.6440 118° Southeast 498 573 37,000  Level FlightAware
07:41AM 46.9030 36.7680 118° Southeast 495 570 37,000  Level FlightAware
07:41AM 46.8570 36.8910 119° Southeast 496 571 37,000  Level FlightAware
07:42AM 46.8230 36.9830 118° Southeast 497 572 37,000  Level FlightAware
07:43AM 46.7820 37.0930 119° Southeast 494 568 37,000  Level FlightAware
07:43AM 46.7490 37.1810 119° Southeast 492 566 37,000  Level FlightAware
07:44AM 46.7040 37.3000 119° Southeast 491 565 37,000  Level FlightAware
07:45AM 46.6440 37.4650 118° Southeast 496 571 37,000  Level FlightAware
07:45AM 46.6160 37.5590 113° Southeast 498 573 37,000  Level FlightAware
07:46AM 46.5770 37.6910 113° Southeast 497 572 37,000  Level FlightAware
07:47AM 46.5430 37.8020 114° Southeast 497 572 37,000  Level FlightAware
07:47AM 46.5100 37.9080 114° Southeast 497 572 37,000  Level FlightAware
07:48AM 46.4760 38.0210 114° Southeast 494 568 37,000  Level FlightAware
07:48AM 46.4390 38.1400 114° Southeast 493 567 37,000  Level FlightAware
07:49AM 46.3950 38.2820 114° Southeast 491 565 37,000  Level FlightAware
07:50AM 46.3620 38.3860 115° Southeast 491 565 37,000  Level FlightAware
07:50AM 46.3250 38.5040 114° Southeast 489 563 37,000  Level FlightAware
07:51AM 46.2890 38.6190 114° Southeast 491 565 37,000  Level FlightAware
07:52AM 46.2490 38.7450 115° Southeast 495 570 37,000  Level FlightAware
07:52AM 46.2140 38.8560 114° Southeast 500 575 37,000  Level FlightAware
07:53AM 46.1720 38.9870 115° Southeast 502 578 37,000  Level FlightAware
07:54AM 46.1430 39.0900 112° Southeast 501 577 37,000  Level FlightAware
07:54AM 46.1140 39.1920 112° Southeast 501 577 37,000  Level FlightAware
07:55AM 46.0730 39.3350 112° Southeast 496 571 37,000  Level FlightAware
07:56AM 46.0280 39.4900 113° Southeast 495 570 37,000  Level FlightAware
07:57AM 46.0010 39.5830 113° Southeast 495 570 37,000  Level FlightAware
07:57AM 45.9670 39.7000 113° Southeast 494 568 37,000  Level FlightAware
07:58AM 45.9300 39.8270 113° Southeast 496 571 37,000  Level FlightAware
07:59AM 45.8750 40.0120 113° Southeast 496 571 37,000  Level FlightAware
07:59AM 45.8450 40.1060 115° Southeast 497 572 37,000  Level FlightAware
08:00AM 45.7960 40.2410 117° Southeast 497 572 37,000  Level FlightAware
08:01AM 45.7520 40.3610 118° Southeast 495 570 37,000  Level FlightAware
08:01AM 45.7210 40.4470 117° Southeast 494 568 37,000  Level FlightAware
08:02AM 45.6890 40.5320 118° Southeast 492 566 37,000  Level FlightAware
08:03AM 45.6210 40.7150 118° Southeast 490 564 37,000  Level FlightAware
08:04AM 45.5760 40.8360 118° Southeast 492 566 37,000  Level FlightAware
08:04AM 45.5420 40.9260 118° Southeast 495 570 37,000  Level FlightAware
08:05AM 45.4710 41.1140 118° Southeast 496 571 37,000  Level FlightAware
08:06AM 45.4280 41.2270 118° Southeast 497 572 37,000  Level FlightAware
08:06AM 45.4140 41.2630 119° Southeast 497 572 37,000  Level FlightAware
08:08AM 45.3230 41.5010 118° Southeast 490 564 37,000  Level FlightAware
08:08AM 45.2900 41.5910 118° Southeast 490 564 37,000  Level FlightAware
08:08AM 45.2860 41.6010 120° Southeast 490 564 37,000  Level FlightAware
08:09AM 45.2130 41.8210 115° Southeast 493 567 37,000  Level FlightAware
08:10AM 45.1820 41.9130 116° Southeast 493 567 37,000  Level FlightAware
08:10AM 45.1470 42.0050 118° Southeast 495 570 37,000  Level FlightAware
08:11AM 45.0890 42.1590 118° Southeast 489 563 37,000  Level FlightAware
08:12AM 45.0410 42.2690 122° Southeast 491 565 37,000  Level FlightAware
08:13AM 44.9960 42.3740 121° Southeast 491 565 37,000  Level FlightAware
08:13AM 44.9740 42.4250 121° Southeast 490 564 37,000  Level FlightAware
08:14AM 44.9300 42.5270 121° Southeast 489 563 37,000  Level FlightAware
08:14AM 44.8830 42.6360 121° Southeast 493 567 37,000  Level FlightAware
08:15AM 44.8280 42.7610 122° Southeast 488 562 37,000  Level FlightAware
08:16AM 44.7660 42.9050 121° Southeast 491 565 37,000  Level FlightAware
08:16AM 44.7350 42.9740 122° Southeast 495 570 37,000  Level FlightAware
08:17AM 44.6930 43.0720 121° Southeast 491 565 37,000  Level FlightAware
08:18AM 44.6450 43.1900 120° Southeast 488 562 37,000  Level FlightAware
08:18AM 44.5990 43.2990 121° Southeast 490 564 37,000  Level FlightAware
08:19AM 44.5490 43.4170 121° Southeast 501 577 37,000  Level FlightAware
08:19AM 44.5140 43.5000 121° Southeast 497 572 37,000  Level FlightAware
08:20AM 44.4650 43.6200 120° Southeast 492 566 37,000  Level FlightAware
08:21AM 44.4310 43.7020 120° Southeast 493 567 37,000  Level FlightAware
08:21AM 44.3800 43.8290 119° Southeast 496 571 37,000  Level FlightAware
08:22AM 44.3550 43.8890 120° Southeast 500 575 37,000  Level FlightAware
08:23AM 44.2930 44.0390 120° Southeast 500 575 37,000  Level FlightAware
08:24AM 44.2090 44.2430 120° Southeast 496 571 37,000  Level FlightAware
08:25AM 44.1610 44.3550 121° Southeast 499 574 37,000  Level FlightAware
08:25AM 44.1170 44.4610 120° Southeast 501 577 37,000  Level FlightAware
08:26AM 44.0950 44.5140 120° Southeast 502 578 37,000  Level FlightAware
08:26AM 44.0350 44.6590 120° Southeast 505 581 37,000  Level FlightAware
08:27AM 43.9970 44.7600 118° Southeast 507 583 37,000  Level FlightAware
08:28AM 43.9510 44.8800 118° Southeast 507 583 37,000  Level FlightAware
08:29AM 43.8800 45.0610 119° Southeast 506 582 37,000  Level FlightAware
08:29AM 43.8400 45.1640 118° Southeast 507 583 37,000  Level FlightAware
08:30AM 43.7910 45.2880 119° Southeast 505 581 37,000  Level FlightAware
08:30AM 43.7600 45.3660 119° Southeast 506 582 37,000  Level FlightAware
08:31AM 43.7030 45.5100 119° Southeast 508 585 37,000  Level FlightAware
08:32AM 43.6570 45.6250 119° Southeast 510 587 37,000  Level FlightAware
08:33AM 43.6150 45.7300 119° Southeast 508 585 37,000  Level FlightAware
08:33AM 43.5680 45.8460 119° Southeast 508 585 37,000  Level FlightAware
08:34AM 43.5280 45.9460 119° Southeast 508 585 37,000  Level FlightAware
08:34AM 43.4890 46.0430 119° Southeast 509 586 37,000  Level FlightAware
08:35AM 43.4470 46.1450 120° Southeast 510 587 37,000  Level FlightAware
08:36AM 43.3990 46.2640 119° Southeast 509 586 37,000  Level FlightAware
08:36AM 43.3620 46.3530 120° Southeast 509 586 37,000  Level FlightAware
08:37AM 43.3190 46.4580 119° Southeast 508 585 37,000  Level FlightAware
08:38AM 43.2730 46.5700 119° Southeast 507 583 37,000  Level FlightAware
08:39AM 43.2020 46.7420 119° Southeast 507 583 37,000  Level FlightAware
08:39AM 43.1640 46.8320 120° Southeast 508 585 37,000  Level FlightAware
08:40AM 43.1090 46.9640 120° Southeast 505 581 37,000  Level FlightAware
08:40AM 43.0690 47.0600 120° Southeast 505 581 37,000  Level FlightAware
08:41AM 43.0250 47.1630 120° Southeast 508 585 37,000  Level FlightAware
08:42AM 42.9710 47.2930 120° Southeast 506 582 37,000  Level FlightAware
08:42AM 42.9300 47.3880 120° Southeast 505 581 37,000  Level FlightAware
08:43AM 42.8890 47.4860 120° Southeast 505 581 37,000  Level FlightAware
08:44AM 42.8240 47.6380 120° Southeast 508 585 37,000  Level FlightAware
08:45AM 42.7550 47.8320 116° Southeast 509 586 37,000  Level FlightAware
08:46AM 42.7150 47.9480 115° Southeast 508 585 37,000  Level FlightAware
08:46AM 42.6760 48.0570 116° Southeast 509 586 37,000  Level FlightAware
08:47AM 42.6420 48.1550 115° Southeast 511 588 37,000  Level FlightAware
08:48AM 42.6000 48.2720 116° Southeast 513 590 37,000  Level FlightAware
08:48AM 42.5610 48.3810 116° Southeast 512 589 37,000  Level FlightAware
08:49AM 42.5150 48.5110 116° Southeast 509 586 37,000  Level FlightAware
08:50AM 42.4810 48.6040 116° Southeast 508 585 37,000  Level FlightAware
08:50AM 42.4500 48.6920 115° Southeast 507 583 37,000  Level FlightAware
08:51AM 42.4170 48.7830 116° Southeast 506 582 37,000  Level FlightAware
08:51AM 42.3770 48.8920 116° Southeast 508 585 37,000  Level FlightAware
08:52AM 42.3370 49.0030 116° Southeast 509 586 37,000  Level FlightAware
08:53AM 42.3000 49.1040 116° Southeast 509 586 37,000  Level FlightAware
08:53AM 42.2630 49.2040 117° Southeast 506 582 37,000  Level FlightAware
08:54AM 42.2280 49.2990 116° Southeast 503 579 37,000  Level FlightAware
08:54AM 42.1870 49.4080 117° Southeast 502 578 37,000  Level FlightAware
08:55AM 42.1170 49.5910 117° Southeast 506 582 37,000  Level FlightAware
08:56AM 42.0840 49.6750 118° Southeast 507 583 37,000  Level FlightAware
08:56AM 42.0520 49.7590 117° Southeast 508 585 37,000  Level FlightAware
08:57AM 42.0070 49.8750 118° Southeast 507 583 37,000  Level FlightAware
08:58AM 41.9680 49.9760 117° Southeast 508 585 37,000  Level FlightAware
08:58AM 41.9350 50.0610 118° Southeast 509 586 37,000  Level FlightAware
08:59AM 41.8570 50.2610 118° Southeast 509 586 37,000  Level FlightAware
09:00AM 41.8350 50.3160 118° Southeast 509 586 37,000  Level FlightAware
09:01AM 41.7600 50.5060 118° Southeast 509 586 37,000  Level FlightAware
09:01AM 41.7210 50.6060 118° Southeast 508 585 37,000  Level FlightAware
09:02AM 41.6960 50.6670 119° Southeast 508 585 37,000  Level FlightAware
09:03AM 41.6490 50.7860 118° Southeast 510 587 37,000  Level FlightAware
09:03AM 41.6260 50.8430 118° Southeast 510 587 37,000  Level FlightAware
09:04AM 41.5770 50.9660 118° Southeast 510 587 37,000  Level FlightAware
09:04AM 41.5420 51.0560 117° Southeast 510 587 37,000  Level FlightAware
09:05AM 41.5190 51.1120 119° Southeast 510 587 37,000  Level FlightAware
09:06AM 41.4420 51.2990 119° Southeast 512 589 37,000  Level FlightAware
09:06AM 41.3980 51.4100 118° Southeast 512 589 37,000  Level FlightAware
09:07AM 41.3630 51.4980 118° Southeast 512 589 37,000  Level FlightAware
09:08AM 41.3170 51.6070 119° Southeast 513 590 37,000 120 Level FlightAware
09:08AM 41.2750 51.7120 118° Southeast 513 590 37,200 120 Climbing FlightAware
09:09AM 41.2420 51.7920 119° Southeast 513 590 37,200  Level FlightAware
09:09AM 41.2100 51.8730 118° Southeast 513 590 37,200  Level FlightAware
09:10AM 41.1650 51.9860 118° Southeast 513 590 37,200  Level FlightAware
09:11AM 41.1080 52.1280 118° Southeast 513 590 37,200  Level FlightAware
09:13AM 41.0220 52.3430 118° Southeast 513 590 37,200  Level FlightAware
09:13AM 40.9870 52.4300 118° Southeast 513 590 37,200  Level FlightAware
09:14AM 40.9530 52.5150 118° Southeast 513 590 37,200  Level FlightAware
09:14AM 40.9180 52.6000 119° Southeast 513 590 37,200  Level FlightAware
09:16AM 40.8500 52.7700 118° Southeast 513 590 37,200  Level FlightAware
09:17AM 40.7820 52.9390 118° Southeast 513 590 37,200  Level FlightAware
09:17AM 40.7480 53.0240 118° Southeast 513 590 37,200  Level FlightAware
09:18AM 40.7370 53.0520 117° Southeast 513 590 37,200  Level FlightAware
09:21AM 40.5681 53.4887 117° Southeast  Level Estimated
09:22AM 40.5085 53.6414 117° Southeast  Level Estimated
09:23AM 40.4487 53.7938 117° Southeast  Level Estimated
09:24AM 40.3886 53.9460 117° Southeast  Level Estimated
09:25AM 40.3284 54.0979 117° Southeast  Level Estimated
09:26AM 40.2679 54.2495 118° Southeast  Level Estimated
09:27AM 40.2073 54.4008 118° Southeast  Level Estimated
09:28AM 40.1465 54.5519 118° Southeast  Level Estimated
09:29AM 40.0854 54.7027 118° Southeast  Level Estimated
09:30AM 40.0242 54.8532 118° Southeast  Level Estimated
09:31AM 39.9628 55.0035 118° Southeast  Level Estimated
09:32AM 39.9012 55.1535 118° Southeast  Level Estimated
09:33AM 39.8394 55.3032 118° Southeast  Level Estimated
09:34AM 39.7774 55.4526 118° Southeast  Level Estimated
09:35AM 39.7152 55.6018 118° Southeast  Level Estimated
09:36AM 39.6528 55.7507 119° Southeast  Level Estimated
09:37AM 39.5902 55.8993 119° Southeast  Level Estimated
09:38AM 39.5275 56.0477 119° Southeast  Level Estimated
09:39AM 39.4646 56.1958 119° Southeast  Level Estimated
09:40AM 39.4014 56.3437 119° Southeast  Level Estimated
09:41AM 39.3381 56.4912 119° Southeast  Level Estimated
09:42AM 39.2746 56.6385 119° Southeast  Level Estimated
09:43AM 39.2109 56.7856 119° Southeast  Level Estimated
09:44AM 39.1470 56.9323 119° Southeast  Level Estimated
09:45AM 39.0830 57.0788 119° Southeast  Level Estimated
09:46AM 39.0187 57.2251 119° Southeast  Level Estimated
09:47AM 38.9543 57.3710 120° Southeast  Level Estimated
09:48AM 38.8897 57.5167 120° Southeast  Level Estimated
09:49AM 38.8249 57.6622 120° Southeast  Level Estimated
09:50AM 38.7599 57.8073 120° Southeast  Level Estimated
09:51AM 38.6948 57.9523 120° Southeast  Level Estimated
09:52AM 38.6295 58.0969 120° Southeast  Level Estimated
09:53AM 38.5640 58.2413 120° Southeast  Level Estimated
09:54AM 38.4983 58.3854 120° Southeast  Level Estimated
09:55AM 38.4324 58.5292 120° Southeast  Level Estimated
09:56AM 38.3664 58.6728 120° Southeast  Level Estimated
09:57AM 38.3002 58.8162 120° Southeast  Level Estimated
09:58AM 38.2338 58.9592 121° Southeast  Level Estimated
09:59AM 38.1673 59.1020 121° Southeast  Level Estimated
10:00AM 38.1005 59.2446 121° Southeast  Level Estimated
10:01AM 38.0336 59.3869 121° Southeast  Level Estimated
10:02AM 37.9666 59.5289 121° Southeast  Level Estimated
10:03AM 37.8993 59.6707 121° Southeast  Level Estimated
10:04AM 37.8319 59.8122 121° Southeast  Level Estimated
10:05AM 37.7643 59.9534 121° Southeast  Level Estimated
10:06AM 37.6966 60.0944 121° Southeast  Level Estimated
10:07AM 37.6287 60.2352 121° Southeast  Level Estimated
10:08AM 37.5606 60.3756 121° Southeast  Level Estimated
10:09AM 37.4924 60.5159 121° Southeast  Level Estimated
10:10AM 37.4239 60.6558 122° Southeast  Level Estimated
10:11AM 37.3554 60.7955 122° Southeast  Level Estimated
10:12AM 37.2866 60.9350 122° Southeast  Level Estimated
10:13AM 37.2177 61.0742 122° Southeast  Level Estimated
10:14AM 37.1487 61.2131 122° Southeast  Level Estimated
10:15AM 37.0794 61.3518 122° Southeast  Level Estimated
10:16AM 37.0100 61.4902 122° Southeast  Level Estimated
10:17AM 36.9405 61.6284 122° Southeast  Level Estimated
10:18AM 36.8708 61.7663 122° Southeast  Level Estimated
10:19AM 36.8009 61.9040 122° Southeast  Level Estimated
10:20AM 36.7309 62.0415 122° Southeast  Level Estimated
10:21AM 36.6607 62.1786 123° Southeast  Level Estimated
10:22AM 36.5904 62.3156 123° Southeast  Level Estimated
10:23AM 36.5199 62.4522 123° Southeast  Level Estimated
10:24AM 36.4492 62.5887 123° Southeast  Level Estimated
10:25AM 36.3784 62.7248 123° Southeast  Level Estimated
10:26AM 36.3074 62.8608 123° Southeast  Level Estimated
10:27AM 36.2363 62.9965 123° Southeast  Level Estimated
10:28AM 36.1650 63.1319 123° Southeast  Level Estimated
10:29AM 36.0936 63.2671 123° Southeast  Level Estimated
10:30AM 36.0220 63.4020 123° Southeast  Level Estimated
10:31AM 35.9503 63.5367 123° Southeast  Level Estimated
10:32AM 35.8785 63.6712 123° Southeast  Level Estimated
10:33AM 35.8064 63.8054 123° Southeast  Level Estimated
10:34AM 35.7343 63.9394 124° Southeast  Level Estimated
10:35AM 35.6619 64.0731 124° Southeast  Level Estimated
10:36AM 35.5895 64.2066 124° Southeast  Level Estimated
10:37AM 35.5169 64.3398 124° Southeast  Level Estimated
10:38AM 35.4441 64.4728 124° Southeast  Level Estimated
10:39AM 35.3712 64.6056 124° Southeast  Level Estimated
10:40AM 35.2981 64.7381 124° Southeast  Level Estimated
10:41AM 35.2249 64.8704 124° Southeast  Level Estimated
10:42AM 35.1516 65.0024 124° Southeast  Level Estimated
10:43AM 35.0781 65.1342 124° Southeast  Level Estimated
10:44AM 35.0045 65.2658 124° Southeast  Level Estimated
10:45AM 34.9307 65.3971 124° Southeast  Level Estimated
10:46AM 34.8568 65.5282 124° Southeast  Level Estimated
10:47AM 34.7828 65.6590 125° Southeast  Level Estimated
10:48AM 34.7086 65.7897 125° Southeast  Level Estimated
10:49AM 34.6342 65.9201 125° Southeast  Level Estimated
10:50AM 34.5598 66.0502 125° Southeast  Level Estimated
10:51AM 34.4852 66.1801 125° Southeast  Level Estimated
10:52AM 34.4104 66.3098 125° Southeast  Level Estimated
10:53AM 34.3355 66.4393 125° Southeast  Level Estimated
10:54AM 34.2605 66.5685 125° Southeast  Level Estimated
10:55AM 34.1854 66.6975 125° Southeast  Level Estimated
10:56AM 34.1101 66.8262 125° Southeast  Level Estimated
10:57AM 34.0347 66.9548 125° Southeast  Level Estimated
10:58AM 33.9591 67.0831 125° Southeast  Level Estimated
10:59AM 33.8835 67.2112 125° Southeast  Level Estimated
11:00AM 33.8076 67.3390 125° Southeast  Level Estimated
11:01AM 33.7317 67.4667 126° Southeast  Level Estimated
11:02AM 33.6556 67.5940 126° Southeast  Level Estimated
11:03AM 33.5794 67.7212 126° Southeast  Level Estimated
11:04AM 33.5031 67.8482 126° Southeast  Level Estimated
11:05AM 33.4266 67.9749 126° Southeast  Level Estimated
11:06AM 33.3500 68.1014 126° Southeast  Level Estimated
11:06AM 31.8080 68.8020 126° Southeast 517 595 39,000  Level FlightAware
11:07AM 33.2733 68.2277 126° Southeast  Level Estimated
11:07AM 31.7430 68.8920 130° Southeast 516 594 39,000  Level FlightAware
11:07AM 31.7130 68.9350 129° Southeast 515 593 39,000  Level FlightAware
11:08AM 31.5950 69.1040 129° Southeast 517 595 39,000  Level FlightAware
11:09AM 31.4880 69.2650 128° Southeast 520 598 39,000  Level FlightAware
11:10AM 31.4240 69.3600 128° Southeast 519 597 39,000  Level FlightAware
11:11AM 31.3680 69.4370 130° Southeast 516 594 39,000  Level FlightAware
11:11AM 31.3300 69.4790 137° Southeast 513 590 39,000  Level FlightAware
11:12AM 31.2280 69.5790 140° Southeast 514 592 39,000  Level FlightAware
11:13AM 31.1580 69.6470 140° Southeast 512 589 39,000  Level FlightAware
11:13AM 31.0930 69.7090 141° Southeast 513 590 39,000  Level FlightAware
11:14AM 31.0220 69.7760 141° Southeast 514 592 39,000  Level FlightAware
11:14AM 30.9630 69.8310 141° Southeast 516 594 39,000  Level FlightAware
11:15AM 30.8920 69.8980 141° Southeast 518 596 39,000  Level FlightAware
11:16AM 30.8170 69.9690 141° Southeast 519 597 39,000  Level FlightAware
11:16AM 30.7500 70.0310 141° Southeast 517 595 39,000  Level FlightAware
11:17AM 30.6800 70.0960 141° Southeast 515 593 39,000  Level FlightAware
11:18AM 30.6130 70.1580 141° Southeast 512 589 39,000  Level FlightAware
11:18AM 30.5480 70.2190 141° Southeast 507 583 39,000  Level FlightAware
11:19AM 30.4890 70.2740 141° Southeast 509 586 39,000  Level FlightAware
11:19AM 30.4300 70.3290 141° Southeast 508 585 39,000  Level FlightAware
11:20AM 30.3630 70.3910 141° Southeast 507 583 39,000  Level FlightAware
11:20AM 30.3000 70.4490 142° Southeast 507 583 39,000  Level FlightAware
11:21AM 30.2240 70.5190 141° Southeast 506 582 39,000  Level FlightAware
11:22AM 30.1430 70.5950 141° Southeast 504 580 39,000  Level FlightAware
11:22AM 30.0830 70.6520 141° Southeast 504 580 39,000  Level FlightAware
11:23AM 30.0030 70.7280 141° Southeast 505 581 39,000  Level FlightAware
11:24AM 29.9300 70.7960 141° Southeast 506 582 39,000  Level FlightAware
11:24AM 29.8720 70.8520 140° Southeast 506 582 39,000  Level FlightAware
11:25AM 29.8140 70.9060 141° Southeast 507 583 39,000  Level FlightAware
11:25AM 29.7630 70.9540 141° Southeast 508 585 39,000  Level FlightAware
11:26AM 29.6980 71.0140 141° Southeast 509 586 39,000  Level FlightAware
11:26AM 29.6430 71.0670 140° Southeast 515 593 39,000  Level FlightAware
11:27AM 29.5900 71.1220 138° Southeast 518 596 39,000  Level FlightAware
11:28AM 29.5250 71.1890 138° Southeast 519 597 39,000  Level FlightAware
11:28AM 29.4280 71.2890 138° Southeast 518 596 39,000  Level FlightAware
11:29AM 29.3530 71.3650 139° Southeast 516 594 39,000  Level FlightAware
11:30AM 29.2890 71.4300 138° Southeast 516 594 39,000  Level FlightAware
11:30AM 29.2170 71.5030 138° Southeast 515 593 39,000  Level FlightAware
11:31AM 29.1510 71.5710 138° Southeast 515 593 39,000  Level FlightAware
11:32AM 29.0930 71.6300 138° Southeast 515 593 39,000  Level FlightAware
11:32AM 29.0270 71.6970 138° Southeast 516 594 39,000  Level FlightAware
11:33AM 28.9080 71.8190 138° Southeast 515 593 39,000  Level FlightAware
11:34AM 28.8500 71.8770 139° Southeast 515 593 39,000  Level FlightAware
11:34AM 28.8130 71.9160 137° Southeast 515 593 39,000  Level FlightAware
11:35AM 28.7210 72.0080 139° Southeast 509 586 39,000  Level FlightAware
11:36AM 28.6680 72.0630 138° Southeast 509 586 39,000  Level FlightAware
11:36AM 28.5800 72.1490 139° Southeast 508 585 39,000  Level FlightAware
11:37AM 28.5130 72.2240 135° Southeast 514 592 39,000  Level FlightAware
11:38AM 28.4660 72.2930 128° Southeast 524 603 39,000  Level FlightAware
11:38AM 28.4080 72.4040 121° Southeast 530 610 39,000  Level FlightAware
11:40AM 28.3290 72.5760 118° Southeast 529 609 39,000  Level FlightAware
11:41AM 28.2570 72.7310 118° Southeast 533 613 39,000  Level FlightAware
11:41AM 28.2140 72.8230 118° Southeast 535 616 39,000  Level FlightAware
11:42AM 28.1490 72.9610 118° Southeast 536 617 39,000  Level FlightAware
11:43AM 28.0890 73.0880 118° Southeast 538 619 39,000  Level FlightAware
11:44AM 28.0520 73.1680 118° Southeast 537 618 39,000  Level FlightAware
11:44AM 28.0230 73.2280 119° Southeast 538 619 39,000  Level FlightAware
11:45AM 27.9580 73.3650 118° Southeast 537 618 39,000  Level FlightAware
11:45AM 27.9340 73.4180 117° Southeast 537 618 39,000  Level FlightAware
11:46AM 27.8990 73.4920 118° Southeast 537 618 39,000  Level FlightAware
11:47AM 27.8630 73.5680 118° Southeast 537 618 39,000  Level FlightAware
11:47AM 27.8280 73.6420 118° Southeast 537 618 39,000  Level FlightAware
11:48AM 27.8040 73.6940 118° Southeast 537 618 39,000  Level FlightAware
11:49AM 27.7340 73.8420 118° Southeast 537 618 39,000  Level FlightAware
11:49AM 27.7100 73.8930 118° Southeast 537 618 39,000  Level FlightAware
11:50AM 27.6220 74.0890 117° Southeast 539 620 39,000  Level FlightAware
11:50AM 27.5970 74.1440 117° Southeast 538 619 39,000  Level FlightAware
11:51AM 27.5280 74.3000 116° Southeast 533 613 39,000  Level FlightAware
11:52AM 27.4910 74.3810 117° Southeast 536 617 39,000  Level FlightAware
11:52AM 27.4560 74.4600 117° Southeast 535 616 39,000  Level FlightAware
11:53AM 27.3760 74.6370 117° Southeast 537 618 39,000  Level FlightAware
11:54AM 27.3090 74.7860 117° Southeast 537 618 39,000  Level FlightAware
11:55AM 27.2680 74.8760 117° Southeast 537 618 39,000  Level FlightAware
11:56AM 27.2270 74.9650 117° Southeast 538 619 39,000  Level FlightAware
11:56AM 27.1880 75.0510 117° Southeast 538 619 39,000  Level FlightAware
11:57AM 27.1550 75.1230 117° Southeast 540 621 39,000  Level FlightAware
11:57AM 27.1080 75.2250 117° Southeast 536 617 39,000  Level FlightAware
11:58AM 27.0700 75.3100 117° Southeast 535 616 39,000  Level FlightAware
11:59AM 27.0300 75.3960 118° Southeast 534 615 39,000  Level FlightAware
12:00PM 26.9530 75.5630 117° Southeast 534 615 39,000  Level FlightAware
12:01PM 26.8920 75.6970 117° Southeast 538 619 39,000  Level FlightAware
12:01PM 26.8450 75.7970 118° Southeast 539 620 39,000  Level FlightAware
12:02PM 26.7790 75.9330 119° Southeast 534 615 39,000  Level FlightAware
12:03PM 26.7330 76.0210 120° Southeast 531 611 39,000  Level FlightAware
12:04PM 26.6790 76.1260 120° Southeast 529 609 39,000  Level FlightAware
12:05PM 26.6000 76.2810 120° Southeast 534 615 39,000  Level FlightAware
12:05PM 26.5610 76.3560 120° Southeast 537 618 39,000  Level FlightAware
12:06PM 26.5190 76.4380 120° Southeast 537 618 39,000  Level FlightAware
12:06PM 26.4740 76.5250 120° Southeast 532 612 39,000  Level FlightAware
12:07PM 26.4040 76.6700 118° Southeast 534 615 39,000  Level FlightAware
12:08PM 26.3600 76.7620 118° Southeast 533 613 39,000  Level FlightAware
12:09PM 26.3200 76.8450 118° Southeast 534 615 39,000  Level FlightAware
12:09PM 26.2770 76.9360 118° Southeast 532 612 39,000  Level FlightAware
12:10PM 26.2320 77.0280 119° Southeast 531 611 39,000  Level FlightAware
12:11PM 26.1790 77.1380 118° Southeast 534 615 39,000  Level FlightAware
12:11PM 26.1450 77.2080 118° Southeast 535 616 39,000  Level FlightAware
12:12PM 26.0590 77.3850 118° Southeast 532 612 39,000  Level FlightAware
12:13PM 26.0030 77.5000 118° Southeast 532 612 39,000  Level FlightAware
12:14PM 25.9300 77.6500 118° Southeast 536 617 39,000  Level FlightAware
12:15PM 25.8560 77.7980 119° Southeast 534 615 39,000  Level FlightAware
12:16PM 25.8210 77.8700 118° Southeast 536 617 39,000  Level FlightAware
12:16PM 25.7810 77.9510 119° Southeast 535 616 39,000  Level FlightAware
12:17PM 25.7420 78.0300 119° Southeast 536 617 39,000  Level FlightAware
12:17PM 25.7140 78.0880 118° Southeast 536 617 39,000  Level FlightAware
12:18PM 25.6220 78.2710 119° Southeast 540 621 39,000  Level FlightAware
12:19PM 25.5790 78.3570 119° Southeast 542 624 39,000  Level FlightAware
12:20PM 25.5170 78.4840 118° Southeast 542 624 39,000  Level FlightAware
12:21PM 25.4580 78.6050 118° Southeast 544 626 39,000  Level FlightAware
12:21PM 25.4300 78.6610 119° Southeast 541 623 39,000  Level FlightAware
12:22PM 25.3800 78.7650 118° Southeast 541 623 39,000  Level FlightAware
12:22PM 25.3440 78.8350 120° Southeast 543 625 39,000  Level FlightAware
12:24PM 25.3060 78.9130 118° Southeast 543 625 39,000  Level FlightAware
12:25PM 25.2700 78.9880 118° Southeast 543 625 39,000  Level FlightAware
12:25PM 25.2460 79.0380 118° Southeast 543 625 39,000  Level FlightAware
12:26PM 25.2110 79.1110 118° Southeast 543 625 39,000  Level FlightAware
12:26PM 25.1740 79.1880 118° Southeast 543 625 39,000  Level FlightAware
12:27PM 25.1380 79.2630 118° Southeast 543 625 39,000  Level FlightAware
12:27PM 25.1140 79.3130 118° Southeast 543 625 39,000  Level FlightAware
12:28PM 25.0780 79.3880 118° Southeast 543 625 39,000  Level FlightAware
12:29PM 25.0420 79.4630 118° Southeast 543 625 39,000  Level FlightAware
12:30PM 24.9820 79.5870 118° Southeast 543 625 39,000  Level FlightAware
12:30PM 24.9460 79.6620 118° Southeast 543 625 39,000  Level FlightAware
12:31PM 24.9080 79.7390 119° Southeast 543 625 39,000  Level FlightAware
12:31PM 24.8720 79.8140 118° Southeast 543 625 39,000  Level FlightAware
12:32PM 24.8360 79.8890 118° Southeast 543 625 39,000  Level FlightAware
12:33PM 24.8000 79.9640 118° Southeast 543 625 39,000  Level FlightAware
12:33PM 24.7530 80.0610 118° Southeast 543 625 39,000  Level FlightAware
12:36PM 24.5691 80.2878 132° Southeast  Level Estimated
12:37PM 24.4822 80.3947 132° Southeast  Level Estimated
12:38PM 24.3951 80.5014 132° Southeast  Level Estimated
12:39PM 24.3080 80.6080 132° Southeast  Level Estimated
12:40PM 24.2208 80.7145 132° Southeast  Level Estimated
12:41PM 24.1335 80.8208 132° Southeast  Level Estimated
12:42PM 24.0462 80.9269 132° Southeast  Level Estimated
12:43PM 23.9587 81.0330 132° Southeast  Level Estimated
12:44PM 23.8712 81.1388 132° Southeast  Level Estimated
12:45PM 23.7837 81.2446 132° Southeast  Level Estimated
12:46PM 23.6960 81.3502 132° Southeast  Level Estimated
12:47PM 23.6083 81.4556 132° Southeast  Level Estimated
12:48PM 23.5205 81.5609 132° Southeast  Level Estimated
12:49PM 23.4327 81.6661 132° Southeast  Level Estimated
12:50PM 23.3448 81.7711 132° Southeast  Level Estimated
12:51PM 23.2568 81.8760 132° Southeast  Level Estimated
12:52PM 23.1687 81.9808 132° Southeast  Level Estimated
12:53PM 23.0806 82.0854 132° Southeast  Level Estimated
12:54PM 22.9924 82.1899 133° Southeast  Level Estimated
12:55PM 22.9041 82.2942 133° Southeast  Level Estimated
12:56PM 22.8158 82.3984 133° Southeast  Level Estimated
12:57PM 22.7274 82.5025 133° Southeast  Level Estimated
12:58PM 22.6389 82.6064 133° Southeast  Level Estimated
12:59PM 22.5504 82.7102 133° Southeast  Level Estimated
01:00PM 22.4617 82.8139 133° Southeast  Level Estimated
01:01PM 22.3731 82.9174 133° Southeast  Level Estimated
01:02PM 22.2843 83.0208 133° Southeast  Level Estimated
01:03PM 22.1955 83.1241 133° Southeast  Level Estimated
01:04PM 22.1067 83.2272 133° Southeast  Level Estimated
01:05PM 22.0177 83.3302 133° Southeast  Level Estimated
01:06PM 21.9287 83.4331 133° Southeast  Level Estimated
01:07PM 21.8397 83.5359 133° Southeast  Level Estimated
01:08PM 21.7505 83.6385 133° Southeast  Level Estimated
01:09PM 21.6614 83.7410 133° Southeast  Level Estimated
01:10PM 21.5721 83.8434 133° Southeast  Level Estimated
01:11PM 21.4828 83.9456 133° Southeast  Level Estimated
01:12PM 21.3934 84.0477 133° Southeast  Level Estimated
01:13PM 21.3040 84.1497 133° Southeast  Level Estimated
01:14PM 21.2145 84.2516 133° Southeast  Level Estimated
01:15PM 21.1249 84.3534 133° Southeast  Level Estimated
01:16PM 21.0353 84.4550 133° Southeast  Level Estimated
01:16PM 20.6120 85.3490 133° Southeast 491 565 39,000  Level FlightAware
01:17PM 20.9456 84.5565 133° Southeast  Level Estimated
01:17PM 20.5500 85.4310 129° Southeast 491 565 39,000  Level FlightAware
01:18PM 20.5040 85.4920 129° Southeast 491 565 39,000  Level FlightAware
01:19PM 20.4610 85.5480 129° Southeast 491 565 39,000  Level FlightAware
01:20PM 20.3880 85.6440 129° Southeast 491 565 39,000  Level FlightAware
01:20PM 20.3440 85.7020 129° Southeast 491 565 39,000  Level FlightAware
01:21PM 20.2990 85.7610 129° Southeast 491 565 39,000  Level FlightAware
01:21PM 20.2560 85.8190 128° Southeast 491 565 39,000  Level FlightAware
01:22PM 20.2120 85.8760 129° Southeast 491 565 39,000  Level FlightAware
01:23PM 20.1680 85.9340 129° Southeast 491 565 39,000  Level FlightAware
01:23PM 20.1240 85.9910 129° Southeast 491 565 39,000  Level FlightAware
01:24PM 20.0830 86.0460 128° Southeast 491 565 39,000  Level FlightAware
01:24PM 20.0540 86.0840 129° Southeast 491 565 39,000  Level FlightAware
01:25PM 19.9640 86.2020 129° Southeast 491 565 39,000  Level FlightAware
01:27PM 19.6670 86.4120 146° Southeast 482 555 39,000  Level FlightAware
01:28PM 19.6010 86.4820 135° Southeast 482 555 39,000  Level FlightAware
01:29PM 19.5200 86.5690 135° Southeast 482 555 39,000  Level FlightAware
01:29PM 19.4710 86.6200 136° Southeast 482 555 39,000  Level FlightAware
01:30PM 19.4230 86.6710 135° Southeast 482 555 39,000  Level FlightAware
01:30PM 19.3730 86.7230 136° Southeast 482 555 39,000  Level FlightAware
01:31PM 19.2980 86.8030 135° Southeast 482 555 39,000  Level FlightAware
01:32PM 19.2290 86.8770 135° Southeast 482 555 39,000  Level FlightAware
01:33PM 19.1670 86.9420 135° Southeast 482 555 39,000  Level FlightAware
01:34PM 18.9910 87.1250 135° Southeast 479 551 39,000  Level FlightAware
01:35PM 18.9110 87.2090 135° Southeast 479 551 39,000  Level FlightAware
01:36PM 18.8630 87.2600 135° Southeast 479 551 39,000  Level FlightAware
01:36PM 18.7980 87.3290 135° Southeast 479 551 39,000  Level FlightAware
01:37PM 18.7470 87.3820 135° Southeast 479 551 39,000  Level FlightAware
01:37PM 18.7140 87.4180 134° Southeast 479 551 39,000  Level FlightAware
01:38PM 18.6660 87.4680 135° Southeast 479 551 39,000  Level FlightAware
01:39PM 18.6020 87.5360 135° Southeast 479 551 39,000  Level FlightAware
01:39PM 18.5690 87.5710 135° Southeast 479 551 39,000  Level FlightAware
01:40PM 18.5210 87.6210 135° Southeast 479 551 39,000  Level FlightAware
01:41PM 18.4560 87.6900 135° Southeast 479 551 39,000  Level FlightAware
01:41PM 18.4060 87.7420 135° Southeast 479 551 39,000  Level FlightAware
01:42PM 18.3610 87.7900 135° Southeast 479 551 39,000  Level FlightAware
01:43PM 18.2650 87.8910 135° Southeast 479 551 39,000  Level FlightAware
01:46PM 18.0398 88.1265 135° Southeast  Level Estimated
01:47PM 17.9472 88.2231 135° Southeast  Level Estimated
01:48PM 17.8545 88.3196 135° Southeast  Level Estimated
01:49PM 17.7617 88.4160 135° Southeast  Level Estimated
01:50PM 17.6690 88.5124 135° Southeast  Level Estimated
01:51PM 17.5762 88.6086 135° Southeast  Level Estimated
01:52PM 17.4833 88.7047 135° Southeast  Level Estimated
01:53PM 17.3904 88.8007 135° Southeast  Level Estimated
01:54PM 17.2974 88.8966 135° Southeast  Level Estimated
01:55PM 17.2044 88.9924 135° Southeast  Level Estimated
01:56PM 17.1114 89.0881 135° Southeast  Level Estimated
01:57PM 17.0183 89.1838 136° Southeast  Level Estimated
01:58PM 16.9251 89.2793 136° Southeast  Level Estimated
01:59PM 16.8319 89.3747 136° Southeast  Level Estimated
02:00PM 16.7387 89.4701 136° Southeast  Level Estimated
02:01PM 16.6454 89.5653 136° Southeast  Level Estimated
02:02PM 16.5521 89.6605 136° Southeast  Level Estimated
02:03PM 16.4588 89.7555 136° Southeast  Level Estimated
02:04PM 16.3654 89.8505 136° Southeast  Level Estimated
02:05PM 16.2719 89.9454 136° Southeast  Level Estimated
02:06PM 16.1784 90.0402 136° Southeast  Level Estimated
02:07PM 16.0849 90.1349 136° Southeast  Level Estimated
02:08PM 15.9913 90.2295 136° Southeast  Level Estimated
02:09PM 15.8977 90.3240 136° Southeast  Level Estimated
02:10PM 15.8041 90.4184 136° Southeast  Level Estimated
02:11PM 15.7104 90.5128 136° Southeast  Level Estimated
02:12PM 15.6166 90.6071 136° Southeast  Level Estimated
02:13PM 15.5229 90.7012 136° Southeast  Level Estimated
02:14PM 15.4291 90.7953 136° Southeast  Level Estimated
02:15PM 15.3352 90.8893 136° Southeast  Level Estimated
02:16PM 15.2413 90.9833 136° Southeast  Level Estimated
02:17PM 15.1474 91.0771 136° Southeast  Level Estimated
02:18PM 15.0534 91.1709 136° Southeast  Level Estimated
02:19PM 14.9594 91.2645 136° Southeast  Level Estimated
02:20PM 14.8654 91.3581 136° Southeast  Level Estimated
02:21PM 14.7713 91.4516 136° Southeast  Level Estimated
02:22PM 14.6772 91.5451 136° Southeast  Level Estimated
02:23PM 14.5830 91.6384 136° Southeast  Level Estimated
02:24PM 14.4888 91.7317 136° Southeast  Level Estimated
02:25PM 14.3946 91.8249 136° Southeast  Level Estimated
02:26PM 14.3003 91.9180 136° Southeast  Level Estimated
02:27PM 14.2060 92.0110 136° Southeast  Level Estimated
02:28PM 14.1117 92.1040 136° Southeast  Level Estimated
02:29PM 14.0173 92.1968 136° Southeast  Level Estimated
02:30PM 13.9229 92.2896 136° Southeast  Level Estimated
02:31PM 13.8284 92.3823 136° Southeast  Level Estimated
02:32PM 13.7339 92.4750 136° Southeast  Level Estimated
02:33PM 13.6394 92.5676 136° Southeast  Level Estimated
02:34PM 13.5449 92.6601 136° Southeast  Level Estimated
02:35PM 13.4503 92.7525 136° Southeast  Level Estimated
02:36PM 13.3557 92.8448 136° Southeast  Level Estimated
02:37PM 13.2610 92.9371 136° Southeast  Level Estimated
02:38PM 13.1663 93.0293 137° Southeast  Level Estimated
02:39PM 13.0716 93.1215 137° Southeast  Level Estimated
02:40PM 12.9768 93.2135 137° Southeast  Level Estimated
02:41PM 12.8821 93.3055 137° Southeast  Level Estimated
02:42PM 12.7872 93.3975 137° Southeast  Level Estimated
02:43PM 12.6924 93.4893 137° Southeast  Level Estimated
02:44PM 12.5975 93.5811 137° Southeast  Level Estimated
02:45PM 12.5026 93.6729 137° Southeast  Level Estimated
02:46PM 12.4077 93.7645 137° Southeast  Level Estimated
02:47PM 12.3127 93.8561 137° Southeast  Level Estimated
02:48PM 12.2177 93.9476 137° Southeast  Level Estimated
02:49PM 12.1227 94.0391 137° Southeast  Level Estimated
02:50PM 12.0276 94.1305 137° Southeast  Level Estimated
02:51PM 11.9325 94.2218 137° Southeast  Level Estimated
02:52PM 11.8374 94.3130 137° Southeast  Level Estimated
02:53PM 11.7423 94.4043 137° Southeast  Level Estimated
02:54PM 11.6471 94.4954 137° Southeast  Level Estimated
02:55PM 11.5519 94.5864 137° Southeast  Level Estimated
02:56PM 11.4566 94.6775 137° Southeast  Level Estimated
02:57PM 11.3614 94.7684 137° Southeast  Level Estimated
02:58PM 11.2661 94.8593 137° Southeast  Level Estimated
02:59PM 11.1707 94.9501 137° Southeast  Level Estimated
03:00PM 11.0754 95.0409 137° Southeast  Level Estimated
03:01PM 10.9800 95.1316 137° Southeast  Level Estimated
03:02PM 10.8846 95.2223 137° Southeast  Level Estimated
03:03PM 10.7892 95.3129 137° Southeast  Level Estimated
03:04PM 10.6937 95.4034 137° Southeast  Level Estimated
03:05PM 10.5982 95.4939 137° Southeast  Level Estimated
03:06PM 10.5027 95.5843 137° Southeast  Level Estimated
03:07PM 10.4072 95.6747 137° Southeast  Level Estimated
03:08PM 10.3116 95.7650 137° Southeast  Level Estimated
03:09PM 10.2161 95.8552 137° Southeast  Level Estimated
03:10PM 10.1205 95.9454 137° Southeast  Level Estimated
03:11PM 10.0248 96.0356 137° Southeast  Level Estimated
03:12PM 9.9292 96.1257 137° Southeast  Level Estimated
03:13PM 9.8335 96.2157 137° Southeast  Level Estimated
03:14PM 9.7378 96.3057 137° Southeast  Level Estimated
03:15PM 9.6420 96.3956 137° Southeast  Level Estimated
03:16PM 9.5463 96.4855 137° Southeast  Level Estimated
03:17PM 9.4505 96.5754 137° Southeast  Level Estimated
03:18PM 9.3547 96.6652 137° Southeast  Level Estimated
03:19PM 9.2589 96.7549 137° Southeast  Level Estimated
03:20PM 9.1631 96.8446 137° Southeast  Level Estimated
03:21PM 9.0672 96.9342 137° Southeast  Level Estimated
03:22PM 8.9713 97.0238 137° Southeast  Level Estimated
03:23PM 8.8754 97.1134 137° Southeast  Level Estimated
03:24PM 8.7795 97.2029 137° Southeast  Level Estimated
03:25PM 8.6835 97.2923 137° Southeast  Level Estimated
03:26PM 8.5876 97.3817 137° Southeast  Level Estimated
03:27PM 8.4916 97.4711 137° Southeast  Level Estimated
03:28PM 8.3956 97.5604 137° Southeast  Level Estimated
03:29PM 8.2995 97.6497 137° Southeast  Level Estimated
03:30PM 8.2035 97.7389 137° Southeast  Level Estimated
03:31PM 8.1074 97.8281 137° Southeast  Level Estimated
03:32PM 8.0113 97.9172 137° Southeast  Level Estimated
03:33PM 7.9152 98.0063 137° Southeast  Level Estimated
03:34PM 7.8191 98.0954 137° Southeast  Level Estimated
03:35PM 7.7229 98.1844 137° Southeast  Level Estimated
03:36PM 7.6268 98.2734 137° Southeast  Level Estimated
03:37PM 7.5306 98.3623 137° Southeast  Level Estimated
03:38PM 7.4344 98.4512 137° Southeast  Level Estimated
03:39PM 7.3382 98.5401 138° Southeast  Level Estimated
03:40PM 7.2419 98.6289 138° Southeast  Level Estimated
03:40PM 7.3050 98.9200 138° Southeast 462 532 39,000  Level FlightAware
03:41PM 7.1457 98.7177 138° Southeast  Level Estimated
03:41PM 7.2400 98.9770 139° Southeast 463 533 39,000  Level FlightAware
03:42PM 7.1740 99.0350 139° Southeast 463 533 39,000  Level FlightAware
03:42PM 7.1060 99.0940 139° Southeast 460 529 39,000  Level FlightAware
03:43PM 7.0410 99.1510 139° Southeast 458 527 39,000  Level FlightAware
03:44PM 6.9830 99.2010 139° Southeast 461 531 39,000  Level FlightAware
03:44PM 6.9350 99.2440 138° Southeast 458 527 39,000  Level FlightAware
03:45PM 6.8440 99.3220 140° Southeast 458 527 39,000  Level FlightAware
03:46PM 6.7900 99.3690 139° Southeast 458 527 39,000  Level FlightAware
03:46PM 6.7000 99.4480 139° Southeast 460 529 39,000  Level FlightAware
03:47PM 6.6190 99.5180 139° Southeast 463 533 39,000  Level FlightAware
03:48PM 6.5340 99.5920 139° Southeast 460 529 39,000  Level FlightAware
03:49PM 6.4580 99.6580 139° Southeast 455 524 39,000  Level FlightAware
03:50PM 6.4030 99.7090 137° Southeast 455 524 39,000  Level FlightAware
03:50PM 6.3500 99.7610 136° Southeast 456 525 39,000  Level FlightAware
03:51PM 6.2970 99.8130 136° Southeast 454 522 39,000  Level FlightAware
03:51PM 6.2460 99.8650 135° Southeast 452 520 39,000  Level FlightAware
03:52PM 6.1700 99.9510 132° Southeast 450 518 39,000  Level FlightAware
03:53PM 6.0820 100.0520 131° Southeast 452 520 39,000  Level FlightAware
03:54PM 5.9970 100.1330 137° Southeast 458 527 39,000  Level FlightAware
03:55PM 5.9130 100.1990 142° Southeast 459 528 39,000  Level FlightAware
03:56PM 5.7980 100.2770 146° Southeast 462 532 39,000  Level FlightAware
03:57PM 5.6980 100.3430 147° Southeast 466 536 39,000  Level FlightAware
03:58PM 5.6450 100.3790 146° Southeast 466 536 39,000  Level FlightAware
03:58PM 5.5930 100.4140 146° Southeast 465 535 39,000  Level FlightAware
03:59PM 5.5110 100.4690 146° Southeast 465 535 39,000  Level FlightAware
04:00PM 5.4050 100.5390 147° Southeast 465 535 39,000  Level FlightAware
04:00PM 5.3310 100.5890 146° Southeast 462 532 39,000  Level FlightAware
04:01PM 5.2780 100.6240 147° Southeast 459 528 39,000  Level FlightAware
04:02PM 5.1650 100.7000 146° Southeast 459 528 39,000  Level FlightAware
04:03PM 5.1090 100.7370 147° Southeast 458 527 39,000  Level FlightAware
04:03PM 5.0460 100.7790 146° Southeast 459 528 39,000  Level FlightAware
04:04PM 4.9850 100.8200 146° Southeast 460 529 39,000  Level FlightAware
04:04PM 4.9050 100.8740 146° Southeast 458 527 39,000  Level FlightAware
04:06PM 4.7910 100.9490 147° Southeast 459 528 39,000  Level FlightAware
04:06PM 4.7380 100.9850 146° Southeast 459 528 39,000  Level FlightAware
04:07PM 4.6740 101.0270 147° Southeast 458 527 39,000  Level FlightAware
04:08PM 4.5550 101.0950 150° Southeast 462 532 39,000  Level FlightAware
04:08PM 4.4850 101.1200 160° South 465 535 39,000  Level FlightAware
04:09PM 4.4030 101.1430 164° South 468 539 39,000  Level FlightAware
04:10PM 4.2760 101.1810 163° South 467 537 39,000  Level FlightAware
04:10PM 4.2240 101.1970 163° South 463 533 39,000  Level FlightAware
04:11PM 4.1610 101.2370 148° Southeast 458 527 39,000  Level FlightAware
04:12PM 4.1030 101.2810 143° Southeast 458 527 39,000  Level FlightAware
04:12PM 4.0340 101.3320 144° Southeast 459 528 39,000  Level FlightAware
04:13PM 3.9430 101.3990 144° Southeast 458 527 39,000  Level FlightAware
04:14PM 3.8890 101.4400 143° Southeast 458 527 39,000  Level FlightAware
04:14PM 3.8040 101.5030 144° Southeast 456 525 39,000  Level FlightAware
04:15PM 3.7440 101.5470 144° Southeast 457 526 39,000  Level FlightAware
04:16PM 3.6840 101.5920 143° Southeast 458 527 39,000  Level FlightAware
04:16PM 3.6580 101.6110 144° Southeast 458 527 39,000  Level FlightAware
04:17PM 3.6230 101.6370 143° Southeast 459 528 39,000  Level FlightAware
04:18PM 3.5190 101.7140 144° Southeast 463 533 39,000  Level FlightAware
04:18PM 3.4370 101.7740 144° Southeast 466 536 39,000  Level FlightAware
04:19PM 3.3650 101.8280 143° Southeast 466 536 39,000  Level FlightAware
04:19PM 3.3260 101.8560 144° Southeast 466 536 39,000  Level FlightAware
04:20PM 3.2530 101.9100 144° Southeast 466 536 39,000 -120 Level FlightAware
04:21PM 3.1720 101.9700 144° Southeast 466 536 38,900 -540 Descending FlightAware
04:21PM 3.1040 102.0210 143° Southeast 461 531 38,300 -960 Descending FlightAware
04:22PM 3.0600 102.0530 144° Southeast 462 532 37,900 -960 Descending FlightAware
04:22PM 2.9740 102.1160 144° Southeast 467 537 37,100 -600 Descending FlightAware
04:23PM 2.9010 102.1710 143° Southeast 467 537 37,000 -120 Descending FlightAware
04:24PM 2.8480 102.2100 144° Southeast 468 539 37,000  Level FlightAware
04:24PM 2.7630 102.2720 144° Southeast 475 547 37,000  Level FlightAware
04:25PM 2.7040 102.3160 143° Southeast 472 543 37,000  Level FlightAware
04:26PM 2.6370 102.3660 143° Southeast 470 541 37,000  Level FlightAware
04:26PM 2.5850 102.4040 144° Southeast 472 543 37,000  Level FlightAware
04:27PM 2.5120 102.4580 144° Southeast 473 544 37,000 -240 Level FlightAware
04:28PM 2.4160 102.5290 144° Southeast 475 547 36,700 -900 Descending FlightAware
04:28PM 2.3440 102.5820 144° Southeast 477 549 35,600 -1,800 Descending FlightAware
04:29PM 2.2930 102.6190 144° Southeast 469 540 34,600 -2,220 Descending FlightAware
04:30PM 2.2050 102.6840 144° Southeast 458 527 32,700 -1,800 Descending FlightAware
04:31PM 2.1200 102.7470 143° Southeast 446 513 31,000 -1,620 Descending FlightAware
04:31PM 2.0750 102.7800 144° Southeast 440 506 30,100 -2,220 Descending FlightAware
04:32PM 2.0070 102.8310 143° Southeast 433 498 28,600 -2,160 Descending FlightAware
04:33PM 1.9240 102.8920 144° Southeast 424 488 26,900 -2,220 Descending FlightAware
04:34PM 1.8030 102.9810 144° Southeast 409 471 24,400 -2,340 Descending FlightAware
04:34PM 1.7500 103.0200 144° Southeast 404 465 23,200 -1,320 Descending FlightAware
04:35PM 1.6900 103.0640 144° Southeast 392 451 22,400 -900 Descending FlightAware
04:36PM 1.6050 103.1270 143° Southeast 347 399 21,700 -1,080 Descending FlightAware
04:37PM 1.5570 103.1590 146° Southeast 355 409 21,000 -660 Descending FlightAware
04:37PM 1.5120 103.1880 147° Southeast 360 414 21,000  Level FlightAware
04:38PM 1.4340 103.2400 146° Southeast 362 417 21,000 -300 Level FlightAware
04:39PM 1.3930 103.2660 148° Southeast 364 419 20,600 -1,800 Descending FlightAware
04:40PM 1.3150 103.3180 146° Southeast 352 405 18,400 -2,220 Descending FlightAware
04:40PM 1.2890 103.3350 147° Southeast 347 399 17,700 -2,760 Descending FlightAware
04:41PM 1.2050 103.3900 147° Southeast 330 380 14,700 -2,820 Descending FlightAware
04:42PM 1.1640 103.4170 147° Southeast 322 371 13,300 -2,100 Descending FlightAware
04:43PM 1.0940 103.4640 146° Southeast 308 354 11,600 -1,380 Descending FlightAware
04:43PM 1.0540 103.4920 145° Southeast 278 320 11,200 -720 Descending FlightAware
04:44PM 1.0450 103.5210 107° East 267 307 10,900 -960 Descending FlightAware
04:44PM 1.0460 103.5520 88° East 265 305 10,400 -1,320 Descending FlightAware
04:45PM 1.0460 103.5930 90° East 265 305 9,600 -1,380 Descending FlightAware
04:45PM 1.0470 103.6380 89° East 260 299 8,700 -1,620 Descending FlightAware
04:46PM 1.0510 103.6750 84° East 258 297 7,800 -1,680 Descending FlightAware
04:46PM 1.0580 103.7120 79° East 259 298 6,900 -1,740 Descending FlightAware
04:47PM 1.0660 103.7460 77° East 251 289 6,100 -1,440 Descending FlightAware
04:47PM 1.0730 103.7780 78° East 250 288 5,600 -1,140 Descending FlightAware
04:48PM 1.0930 103.8110 59° Northeast 252 290 5,000 -1,140 Descending FlightAware
04:48PM 1.1200 103.8410 48° Northeast 250 288 4,400 -840 Descending FlightAware
04:49PM 1.1480 103.8720 48° Northeast 231 266 4,000 -540 Descending FlightAware
04:49PM 1.1670 103.8930 48° Northeast 216 249 3,800 -720 Descending FlightAware
04:50PM 1.1990 103.9140 33° Northeast 201 231 3,200 -1,080 Descending FlightAware
04:51PM 1.2260 103.9260 24° Northeast 198 228 2,600 -1,140 Descending FlightAware
04:51PM 1.2440 103.9330 21° North 184 212 2,200 -900 Descending FlightAware
04:51PM 1.2680 103.9430 23° Northeast 164 189 1,800 -840 Descending FlightAware
04:52PM 1.2820 103.9490 23° Northeast 151 174 1,500 -840 Descending FlightAware
04:52PM 1.3010 103.9570 23° Northeast 144 166 1,100 -720 Descending FlightAware
04:53PM 1.3190 103.9650 24° Northeast 141 162 800 -720 Descending FlightAware
04:53PM 1.3370 103.9730 24° Northeast 140 161 400 -780 Descending FlightAware
04:54PM 1.3470 103.9770 22° Northeast 140 161 200 -720 Descending FlightAware
04:54PM 1.3630 103.9830 21° North 74 85 -420 Descending FlightAware